<?xml version="1.0" encoding="UTF-8" standalone="no" ?>
<gpx xmlns="http://www.topografix.com/GPX/1/1" xmlns:xsi="http://www.w3.org/2001/XMLSchema-instance" xsi:schemaLocation="http://www.topografix.com/GPX/1/1 http://www.topografix.com/GPX/1/1/gpx.xsd" version="1.1" creator="VisuGPX - https://www.visugpx.com">
  <metadata>
    <name>rando vineuil 65 km 2026</name>
  </metadata>
  <wpt lat="47.5528" lon="1.32733">
    <ele>107</ele>
    <name><![CDATA[Ravitaillement]]></name>
  </wpt>
  <wpt lat="47.52994" lon="1.3856">
    <ele>77</ele>
    <name><![CDATA[Ravitaillement]]></name>
  </wpt>
  <trk>
    <name><![CDATA[VTT T3 2026-23549052]]></name>
    <extensions>
      <line xmlns="http://www.topografix.com/GPX/gpx_style/0/2">
        <color>0000FF</color>
        <opacity>1</opacity>
        <width>4</width>
          <extensions>
            <sens>1</sens>
          </extensions>
      </line>
    </extensions>
    <trkseg>
      <trkpt lat="47.58438" lon="1.38341">
        <ele>87</ele>
        <time>2026-05-20T15:30:10Z</time>
      </trkpt>
      <trkpt lat="47.58439" lon="1.38336">
        <ele>87</ele>
        <time>2026-05-20T15:30:11Z</time>
      </trkpt>
      <trkpt lat="47.58478" lon="1.38459">
        <ele>85</ele>
        <time>2026-05-20T15:30:32Z</time>
      </trkpt>
      <trkpt lat="47.58489" lon="1.38483">
        <ele>85</ele>
        <time>2026-05-20T15:30:37Z</time>
      </trkpt>
      <trkpt lat="47.5851" lon="1.38542">
        <ele>84</ele>
        <time>2026-05-20T15:30:47Z</time>
      </trkpt>
      <trkpt lat="47.58585" lon="1.3879">
        <ele>89</ele>
        <time>2026-05-20T15:31:30Z</time>
      </trkpt>
      <trkpt lat="47.58595" lon="1.38805">
        <ele>91</ele>
        <time>2026-05-20T15:31:33Z</time>
      </trkpt>
      <trkpt lat="47.58604" lon="1.38812">
        <ele>92</ele>
        <time>2026-05-20T15:31:36Z</time>
      </trkpt>
      <trkpt lat="47.58609" lon="1.38839">
        <ele>94</ele>
        <time>2026-05-20T15:31:40Z</time>
      </trkpt>
      <trkpt lat="47.58633" lon="1.38877">
        <ele>95</ele>
        <time>2026-05-20T15:31:48Z</time>
      </trkpt>
      <trkpt lat="47.58638" lon="1.38882">
        <ele>96</ele>
        <time>2026-05-20T15:31:50Z</time>
      </trkpt>
      <trkpt lat="47.58648" lon="1.38884">
        <ele>96</ele>
        <time>2026-05-20T15:31:52Z</time>
      </trkpt>
      <trkpt lat="47.58651" lon="1.38886">
        <ele>96</ele>
        <time>2026-05-20T15:31:53Z</time>
      </trkpt>
      <trkpt lat="47.58661" lon="1.38915">
        <ele>97</ele>
        <time>2026-05-20T15:31:58Z</time>
      </trkpt>
      <trkpt lat="47.58666" lon="1.38918">
        <ele>97</ele>
        <time>2026-05-20T15:31:59Z</time>
      </trkpt>
      <trkpt lat="47.58673" lon="1.38912">
        <ele>97</ele>
        <time>2026-05-20T15:32:01Z</time>
      </trkpt>
      <trkpt lat="47.58678" lon="1.38913">
        <ele>97</ele>
        <time>2026-05-20T15:32:02Z</time>
      </trkpt>
      <trkpt lat="47.58688" lon="1.3891">
        <ele>96</ele>
        <time>2026-05-20T15:32:05Z</time>
      </trkpt>
      <trkpt lat="47.58696" lon="1.38918">
        <ele>96</ele>
        <time>2026-05-20T15:32:07Z</time>
      </trkpt>
      <trkpt lat="47.58701" lon="1.38947">
        <ele>96</ele>
        <time>2026-05-20T15:32:12Z</time>
      </trkpt>
      <trkpt lat="47.58709" lon="1.38958">
        <ele>96</ele>
        <time>2026-05-20T15:32:14Z</time>
      </trkpt>
      <trkpt lat="47.58716" lon="1.38959">
        <ele>96</ele>
        <time>2026-05-20T15:32:16Z</time>
      </trkpt>
      <trkpt lat="47.58748" lon="1.39">
        <ele>96</ele>
        <time>2026-05-20T15:32:26Z</time>
      </trkpt>
      <trkpt lat="47.58748" lon="1.39018">
        <ele>96</ele>
        <time>2026-05-20T15:32:29Z</time>
      </trkpt>
      <trkpt lat="47.58737" lon="1.39036">
        <ele>95</ele>
        <time>2026-05-20T15:32:32Z</time>
      </trkpt>
      <trkpt lat="47.58735" lon="1.39045">
        <ele>95</ele>
        <time>2026-05-20T15:32:34Z</time>
      </trkpt>
      <trkpt lat="47.58739" lon="1.3906">
        <ele>95</ele>
        <time>2026-05-20T15:32:37Z</time>
      </trkpt>
      <trkpt lat="47.58732" lon="1.39084">
        <ele>94</ele>
        <time>2026-05-20T15:32:41Z</time>
      </trkpt>
      <trkpt lat="47.58733" lon="1.39112">
        <ele>94</ele>
        <time>2026-05-20T15:32:45Z</time>
      </trkpt>
      <trkpt lat="47.58732" lon="1.39141">
        <ele>93</ele>
        <time>2026-05-20T15:32:50Z</time>
      </trkpt>
      <trkpt lat="47.58736" lon="1.39174">
        <ele>92</ele>
        <time>2026-05-20T15:32:55Z</time>
      </trkpt>
      <trkpt lat="47.58735" lon="1.39183">
        <ele>92</ele>
        <time>2026-05-20T15:32:56Z</time>
      </trkpt>
      <trkpt lat="47.58731" lon="1.39194">
        <ele>91</ele>
        <time>2026-05-20T15:32:58Z</time>
      </trkpt>
      <trkpt lat="47.58709" lon="1.39188">
        <ele>90</ele>
        <time>2026-05-20T15:33:04Z</time>
      </trkpt>
      <trkpt lat="47.58517" lon="1.39155">
        <ele>88</ele>
        <time>2026-05-20T15:33:49Z</time>
      </trkpt>
      <trkpt lat="47.58491" lon="1.39152">
        <ele>88</ele>
        <time>2026-05-20T15:33:55Z</time>
      </trkpt>
      <trkpt lat="47.58347" lon="1.39215">
        <ele>85</ele>
        <time>2026-05-20T15:34:30Z</time>
      </trkpt>
      <trkpt lat="47.58289" lon="1.39263">
        <ele>85</ele>
        <time>2026-05-20T15:34:45Z</time>
      </trkpt>
      <trkpt lat="47.58243" lon="1.39304">
        <ele>86</ele>
        <time>2026-05-20T15:34:58Z</time>
      </trkpt>
      <trkpt lat="47.58172" lon="1.39375">
        <ele>86</ele>
        <time>2026-05-20T15:35:18Z</time>
      </trkpt>
      <trkpt lat="47.58149" lon="1.39403">
        <ele>86</ele>
        <time>2026-05-20T15:35:25Z</time>
      </trkpt>
      <trkpt lat="47.58135" lon="1.3932">
        <ele>85</ele>
        <time>2026-05-20T15:35:38Z</time>
      </trkpt>
      <trkpt lat="47.58105" lon="1.39341">
        <ele>84</ele>
        <time>2026-05-20T15:35:46Z</time>
      </trkpt>
      <trkpt lat="47.58026" lon="1.39402">
        <ele>79</ele>
        <time>2026-05-20T15:36:07Z</time>
      </trkpt>
      <trkpt lat="47.58024" lon="1.394">
        <ele>79</ele>
        <time>2026-05-20T15:36:07Z</time>
      </trkpt>
      <trkpt lat="47.58012" lon="1.39367">
        <ele>78</ele>
        <time>2026-05-20T15:36:13Z</time>
      </trkpt>
      <trkpt lat="47.58005" lon="1.39354">
        <ele>77</ele>
        <time>2026-05-20T15:36:16Z</time>
      </trkpt>
      <trkpt lat="47.57976" lon="1.39322">
        <ele>76</ele>
        <time>2026-05-20T15:36:24Z</time>
      </trkpt>
      <trkpt lat="47.5797" lon="1.39311">
        <ele>76</ele>
        <time>2026-05-20T15:36:27Z</time>
      </trkpt>
      <trkpt lat="47.57962" lon="1.39282">
        <ele>76</ele>
        <time>2026-05-20T15:36:32Z</time>
      </trkpt>
      <trkpt lat="47.57961" lon="1.39269">
        <ele>76</ele>
        <time>2026-05-20T15:36:34Z</time>
      </trkpt>
      <trkpt lat="47.57965" lon="1.39222">
        <ele>78</ele>
        <time>2026-05-20T15:36:41Z</time>
      </trkpt>
      <trkpt lat="47.57965" lon="1.39196">
        <ele>78</ele>
        <time>2026-05-20T15:36:45Z</time>
      </trkpt>
      <trkpt lat="47.57953" lon="1.39089">
        <ele>79</ele>
        <time>2026-05-20T15:37:02Z</time>
      </trkpt>
      <trkpt lat="47.57945" lon="1.38961">
        <ele>79</ele>
        <time>2026-05-20T15:37:23Z</time>
      </trkpt>
      <trkpt lat="47.57934" lon="1.38822">
        <ele>79</ele>
        <time>2026-05-20T15:37:45Z</time>
      </trkpt>
      <trkpt lat="47.57932" lon="1.38748">
        <ele>79</ele>
        <time>2026-05-20T15:37:56Z</time>
      </trkpt>
      <trkpt lat="47.57891" lon="1.38752">
        <ele>76</ele>
        <time>2026-05-20T15:38:06Z</time>
      </trkpt>
      <trkpt lat="47.57872" lon="1.38746">
        <ele>75</ele>
        <time>2026-05-20T15:38:10Z</time>
      </trkpt>
      <trkpt lat="47.57813" lon="1.38749">
        <ele>74</ele>
        <time>2026-05-20T15:38:24Z</time>
      </trkpt>
      <trkpt lat="47.57821" lon="1.38702">
        <ele>74</ele>
        <time>2026-05-20T15:38:32Z</time>
      </trkpt>
      <trkpt lat="47.57836" lon="1.387">
        <ele>73</ele>
        <time>2026-05-20T15:38:35Z</time>
      </trkpt>
      <trkpt lat="47.57843" lon="1.38685">
        <ele>74</ele>
        <time>2026-05-20T15:38:38Z</time>
      </trkpt>
      <trkpt lat="47.57854" lon="1.38645">
        <ele>75</ele>
        <time>2026-05-20T15:38:45Z</time>
      </trkpt>
      <trkpt lat="47.57857" lon="1.38626">
        <ele>75</ele>
        <time>2026-05-20T15:38:48Z</time>
      </trkpt>
      <trkpt lat="47.57853" lon="1.38574">
        <ele>74</ele>
        <time>2026-05-20T15:38:56Z</time>
      </trkpt>
      <trkpt lat="47.57848" lon="1.38537">
        <ele>73</ele>
        <time>2026-05-20T15:39:02Z</time>
      </trkpt>
      <trkpt lat="47.57849" lon="1.38514">
        <ele>73</ele>
        <time>2026-05-20T15:39:06Z</time>
      </trkpt>
      <trkpt lat="47.57858" lon="1.3847">
        <ele>73</ele>
        <time>2026-05-20T15:39:13Z</time>
      </trkpt>
      <trkpt lat="47.57877" lon="1.38422">
        <ele>74</ele>
        <time>2026-05-20T15:39:22Z</time>
      </trkpt>
      <trkpt lat="47.57883" lon="1.38397">
        <ele>74</ele>
        <time>2026-05-20T15:39:26Z</time>
      </trkpt>
      <trkpt lat="47.57887" lon="1.38376">
        <ele>74</ele>
        <time>2026-05-20T15:39:29Z</time>
      </trkpt>
      <trkpt lat="47.57889" lon="1.38337">
        <ele>75</ele>
        <time>2026-05-20T15:39:36Z</time>
      </trkpt>
      <trkpt lat="47.57909" lon="1.38226">
        <ele>75</ele>
        <time>2026-05-20T15:39:54Z</time>
      </trkpt>
      <trkpt lat="47.57914" lon="1.38213">
        <ele>75</ele>
        <time>2026-05-20T15:39:56Z</time>
      </trkpt>
      <trkpt lat="47.57916" lon="1.38201">
        <ele>76</ele>
        <time>2026-05-20T15:39:58Z</time>
      </trkpt>
      <trkpt lat="47.57921" lon="1.38195">
        <ele>76</ele>
        <time>2026-05-20T15:40:00Z</time>
      </trkpt>
      <trkpt lat="47.57978" lon="1.38204">
        <ele>80</ele>
        <time>2026-05-20T15:40:13Z</time>
      </trkpt>
      <trkpt lat="47.5798" lon="1.38199">
        <ele>81</ele>
        <time>2026-05-20T15:40:14Z</time>
      </trkpt>
      <trkpt lat="47.57977" lon="1.38155">
        <ele>82</ele>
        <time>2026-05-20T15:40:21Z</time>
      </trkpt>
      <trkpt lat="47.5798" lon="1.3815">
        <ele>83</ele>
        <time>2026-05-20T15:40:22Z</time>
      </trkpt>
      <trkpt lat="47.57986" lon="1.38148">
        <ele>83</ele>
        <time>2026-05-20T15:40:23Z</time>
      </trkpt>
      <trkpt lat="47.57992" lon="1.38136">
        <ele>84</ele>
        <time>2026-05-20T15:40:26Z</time>
      </trkpt>
      <trkpt lat="47.58003" lon="1.38132">
        <ele>85</ele>
        <time>2026-05-20T15:40:28Z</time>
      </trkpt>
      <trkpt lat="47.58039" lon="1.38132">
        <ele>87</ele>
        <time>2026-05-20T15:40:37Z</time>
      </trkpt>
      <trkpt lat="47.58036" lon="1.38109">
        <ele>86</ele>
        <time>2026-05-20T15:40:40Z</time>
      </trkpt>
      <trkpt lat="47.58031" lon="1.3797">
        <ele>82</ele>
      </trkpt>
      <trkpt lat="47.58006" lon="1.37969">
        <ele>80.3</ele>
      </trkpt>
      <trkpt lat="47.57996" lon="1.37963">
        <ele>78.9</ele>
      </trkpt>
      <trkpt lat="47.57993" lon="1.37952">
        <ele>78</ele>
      </trkpt>
      <trkpt lat="47.5796" lon="1.37946">
        <ele>72.3</ele>
      </trkpt>
      <trkpt lat="47.57928" lon="1.37945">
        <ele>68.8</ele>
      </trkpt>
      <trkpt lat="47.57907" lon="1.37958">
        <ele>68.7</ele>
        <time>2026-05-20T15:41:37Z</time>
      </trkpt>
      <trkpt lat="47.57908" lon="1.37969">
        <ele>74</ele>
        <time>2026-05-20T15:41:40Z</time>
      </trkpt>
      <trkpt lat="47.57906" lon="1.3802">
        <ele>75</ele>
        <time>2026-05-20T15:41:48Z</time>
      </trkpt>
      <trkpt lat="47.5791" lon="1.38059">
        <ele>77</ele>
        <time>2026-05-20T15:41:54Z</time>
      </trkpt>
      <trkpt lat="47.57905" lon="1.38098">
        <ele>78</ele>
        <time>2026-05-20T15:42:01Z</time>
      </trkpt>
      <trkpt lat="47.57903" lon="1.381">
        <ele>78</ele>
        <time>2026-05-20T15:42:01Z</time>
      </trkpt>
      <trkpt lat="47.57887" lon="1.38143">
        <ele>77</ele>
        <time>2026-05-20T15:42:09Z</time>
      </trkpt>
      <trkpt lat="47.57878" lon="1.38154">
        <ele>76</ele>
        <time>2026-05-20T15:42:12Z</time>
      </trkpt>
      <trkpt lat="47.57877" lon="1.38158">
        <ele>76</ele>
        <time>2026-05-20T15:42:12Z</time>
      </trkpt>
      <trkpt lat="47.57866" lon="1.38168">
        <ele>75</ele>
        <time>2026-05-20T15:42:15Z</time>
      </trkpt>
      <trkpt lat="47.57857" lon="1.38168">
        <ele>75</ele>
        <time>2026-05-20T15:42:17Z</time>
      </trkpt>
      <trkpt lat="47.57853" lon="1.38172">
        <ele>75</ele>
        <time>2026-05-20T15:42:19Z</time>
      </trkpt>
      <trkpt lat="47.57845" lon="1.38173">
        <ele>74</ele>
        <time>2026-05-20T15:42:20Z</time>
      </trkpt>
      <trkpt lat="47.57834" lon="1.38177">
        <ele>74</ele>
        <time>2026-05-20T15:42:23Z</time>
      </trkpt>
      <trkpt lat="47.57825" lon="1.38205">
        <ele>74</ele>
        <time>2026-05-20T15:42:28Z</time>
      </trkpt>
      <trkpt lat="47.57815" lon="1.38253">
        <ele>74</ele>
        <time>2026-05-20T15:42:36Z</time>
      </trkpt>
      <trkpt lat="47.57802" lon="1.38261">
        <ele>75</ele>
        <time>2026-05-20T15:42:39Z</time>
      </trkpt>
      <trkpt lat="47.57769" lon="1.38292">
        <ele>79</ele>
        <time>2026-05-20T15:42:48Z</time>
      </trkpt>
      <trkpt lat="47.57758" lon="1.383">
        <ele>80</ele>
        <time>2026-05-20T15:42:51Z</time>
      </trkpt>
      <trkpt lat="47.57748" lon="1.383">
        <ele>81</ele>
        <time>2026-05-20T15:42:53Z</time>
      </trkpt>
      <trkpt lat="47.5774" lon="1.38294">
        <ele>81</ele>
        <time>2026-05-20T15:42:56Z</time>
      </trkpt>
      <trkpt lat="47.57731" lon="1.38278">
        <ele>81</ele>
        <time>2026-05-20T15:42:59Z</time>
      </trkpt>
      <trkpt lat="47.57725" lon="1.38271">
        <ele>82</ele>
        <time>2026-05-20T15:43:01Z</time>
      </trkpt>
      <trkpt lat="47.57669" lon="1.38255">
        <ele>87</ele>
        <time>2026-05-20T15:43:14Z</time>
      </trkpt>
      <trkpt lat="47.57616" lon="1.38254">
        <ele>87</ele>
        <time>2026-05-20T15:43:26Z</time>
      </trkpt>
      <trkpt lat="47.57604" lon="1.38255">
        <ele>87</ele>
        <time>2026-05-20T15:43:29Z</time>
      </trkpt>
      <trkpt lat="47.57599" lon="1.38257">
        <ele>87</ele>
        <time>2026-05-20T15:43:30Z</time>
      </trkpt>
      <trkpt lat="47.57592" lon="1.38273">
        <ele>88</ele>
        <time>2026-05-20T15:43:33Z</time>
      </trkpt>
      <trkpt lat="47.5758" lon="1.38368">
        <ele>91</ele>
        <time>2026-05-20T15:43:49Z</time>
      </trkpt>
      <trkpt lat="47.57575" lon="1.38384">
        <ele>91</ele>
        <time>2026-05-20T15:43:51Z</time>
      </trkpt>
      <trkpt lat="47.57557" lon="1.38383">
        <ele>92</ele>
        <time>2026-05-20T15:43:56Z</time>
      </trkpt>
      <trkpt lat="47.57537" lon="1.38376">
        <ele>92</ele>
        <time>2026-05-20T15:44:00Z</time>
      </trkpt>
      <trkpt lat="47.5753" lon="1.38376">
        <ele>92</ele>
        <time>2026-05-20T15:44:02Z</time>
      </trkpt>
      <trkpt lat="47.57522" lon="1.38382">
        <ele>93</ele>
        <time>2026-05-20T15:44:04Z</time>
      </trkpt>
      <trkpt lat="47.57515" lon="1.38394">
        <ele>93</ele>
        <time>2026-05-20T15:44:07Z</time>
      </trkpt>
      <trkpt lat="47.57495" lon="1.38396">
        <ele>93</ele>
        <time>2026-05-20T15:44:11Z</time>
      </trkpt>
      <trkpt lat="47.57495" lon="1.38417">
        <ele>93</ele>
        <time>2026-05-20T15:44:15Z</time>
      </trkpt>
      <trkpt lat="47.57503" lon="1.38507">
        <ele>92</ele>
        <time>2026-05-20T15:44:29Z</time>
      </trkpt>
      <trkpt lat="47.57497" lon="1.38512">
        <ele>92</ele>
        <time>2026-05-20T15:44:30Z</time>
      </trkpt>
      <trkpt lat="47.57382" lon="1.3854">
        <ele>94</ele>
        <time>2026-05-20T15:44:58Z</time>
      </trkpt>
      <trkpt lat="47.57341" lon="1.38547">
        <ele>94</ele>
        <time>2026-05-20T15:45:07Z</time>
      </trkpt>
      <trkpt lat="47.57333" lon="1.38551">
        <ele>95</ele>
        <time>2026-05-20T15:45:09Z</time>
      </trkpt>
      <trkpt lat="47.57329" lon="1.38564">
        <ele>95</ele>
        <time>2026-05-20T15:45:12Z</time>
      </trkpt>
      <trkpt lat="47.5732" lon="1.38632">
        <ele>95</ele>
        <time>2026-05-20T15:45:22Z</time>
      </trkpt>
      <trkpt lat="47.57308" lon="1.38673">
        <ele>94</ele>
        <time>2026-05-20T15:45:30Z</time>
      </trkpt>
      <trkpt lat="47.57134" lon="1.38927">
        <ele>97</ele>
        <time>2026-05-20T15:46:27Z</time>
      </trkpt>
      <trkpt lat="47.57102" lon="1.38967">
        <ele>96</ele>
        <time>2026-05-20T15:46:36Z</time>
      </trkpt>
      <trkpt lat="47.56959" lon="1.39121">
        <ele>98</ele>
        <time>2026-05-20T15:47:18Z</time>
      </trkpt>
      <trkpt lat="47.56948" lon="1.3914">
        <ele>99</ele>
        <time>2026-05-20T15:47:22Z</time>
      </trkpt>
      <trkpt lat="47.56942" lon="1.39134">
        <ele>99</ele>
        <time>2026-05-20T15:47:23Z</time>
      </trkpt>
      <trkpt lat="47.56931" lon="1.39129">
        <ele>100</ele>
        <time>2026-05-20T15:47:26Z</time>
      </trkpt>
      <trkpt lat="47.56921" lon="1.3912">
        <ele>100</ele>
        <time>2026-05-20T15:47:29Z</time>
      </trkpt>
      <trkpt lat="47.5691" lon="1.3912">
        <ele>101</ele>
        <time>2026-05-20T15:47:31Z</time>
      </trkpt>
      <trkpt lat="47.56899" lon="1.39129">
        <ele>101</ele>
        <time>2026-05-20T15:47:34Z</time>
      </trkpt>
      <trkpt lat="47.56858" lon="1.39172">
        <ele>101</ele>
        <time>2026-05-20T15:47:46Z</time>
      </trkpt>
      <trkpt lat="47.56881" lon="1.39225">
        <ele>100</ele>
        <time>2026-05-20T15:47:56Z</time>
      </trkpt>
      <trkpt lat="47.56885" lon="1.39243">
        <ele>100</ele>
        <time>2026-05-20T15:47:59Z</time>
      </trkpt>
      <trkpt lat="47.56888" lon="1.39272">
        <ele>100</ele>
        <time>2026-05-20T15:48:03Z</time>
      </trkpt>
      <trkpt lat="47.56893" lon="1.39372">
        <ele>100</ele>
        <time>2026-05-20T15:48:19Z</time>
      </trkpt>
      <trkpt lat="47.56895" lon="1.39388">
        <ele>100</ele>
        <time>2026-05-20T15:48:22Z</time>
      </trkpt>
      <trkpt lat="47.56899" lon="1.39403">
        <ele>100</ele>
        <time>2026-05-20T15:48:24Z</time>
      </trkpt>
      <trkpt lat="47.56918" lon="1.39443">
        <ele>100</ele>
        <time>2026-05-20T15:48:32Z</time>
      </trkpt>
      <trkpt lat="47.56924" lon="1.39461">
        <ele>99</ele>
        <time>2026-05-20T15:48:35Z</time>
      </trkpt>
      <trkpt lat="47.56933" lon="1.39477">
        <ele>99</ele>
        <time>2026-05-20T15:48:38Z</time>
      </trkpt>
      <trkpt lat="47.56953" lon="1.39527">
        <ele>98</ele>
        <time>2026-05-20T15:48:48Z</time>
      </trkpt>
      <trkpt lat="47.56971" lon="1.39553">
        <ele>98</ele>
        <time>2026-05-20T15:48:54Z</time>
      </trkpt>
      <trkpt lat="47.56978" lon="1.39573">
        <ele>98</ele>
        <time>2026-05-20T15:48:57Z</time>
      </trkpt>
      <trkpt lat="47.56993" lon="1.396">
        <ele>98</ele>
        <time>2026-05-20T15:49:03Z</time>
      </trkpt>
      <trkpt lat="47.57003" lon="1.39632">
        <ele>97</ele>
        <time>2026-05-20T15:49:08Z</time>
      </trkpt>
      <trkpt lat="47.5701" lon="1.39649">
        <ele>96</ele>
        <time>2026-05-20T15:49:11Z</time>
      </trkpt>
      <trkpt lat="47.57016" lon="1.39677">
        <ele>95</ele>
        <time>2026-05-20T15:49:16Z</time>
      </trkpt>
      <trkpt lat="47.57017" lon="1.39717">
        <ele>95</ele>
        <time>2026-05-20T15:49:22Z</time>
      </trkpt>
      <trkpt lat="47.57015" lon="1.39721">
        <ele>95</ele>
        <time>2026-05-20T15:49:23Z</time>
      </trkpt>
      <trkpt lat="47.57012" lon="1.39764">
        <ele>95</ele>
        <time>2026-05-20T15:49:30Z</time>
      </trkpt>
      <trkpt lat="47.57012" lon="1.39787">
        <ele>94</ele>
        <time>2026-05-20T15:49:33Z</time>
      </trkpt>
      <trkpt lat="47.57008" lon="1.39821">
        <ele>94</ele>
        <time>2026-05-20T15:49:39Z</time>
      </trkpt>
      <trkpt lat="47.57002" lon="1.39845">
        <ele>94</ele>
        <time>2026-05-20T15:49:43Z</time>
      </trkpt>
      <trkpt lat="47.56997" lon="1.3985">
        <ele>94</ele>
        <time>2026-05-20T15:49:44Z</time>
      </trkpt>
      <trkpt lat="47.56991" lon="1.39879">
        <ele>94</ele>
        <time>2026-05-20T15:49:49Z</time>
      </trkpt>
      <trkpt lat="47.56976" lon="1.39898">
        <ele>94</ele>
        <time>2026-05-20T15:49:54Z</time>
      </trkpt>
      <trkpt lat="47.56968" lon="1.39922">
        <ele>94</ele>
        <time>2026-05-20T15:49:58Z</time>
      </trkpt>
      <trkpt lat="47.56964" lon="1.39925">
        <ele>94</ele>
        <time>2026-05-20T15:49:59Z</time>
      </trkpt>
      <trkpt lat="47.5696" lon="1.39936">
        <ele>94</ele>
        <time>2026-05-20T15:50:01Z</time>
      </trkpt>
      <trkpt lat="47.56954" lon="1.39975">
        <ele>93</ele>
        <time>2026-05-20T15:50:07Z</time>
      </trkpt>
      <trkpt lat="47.56954" lon="1.39982">
        <ele>93</ele>
        <time>2026-05-20T15:50:08Z</time>
      </trkpt>
      <trkpt lat="47.56957" lon="1.39993">
        <ele>92</ele>
        <time>2026-05-20T15:50:10Z</time>
      </trkpt>
      <trkpt lat="47.56956" lon="1.40006">
        <ele>92</ele>
        <time>2026-05-20T15:50:12Z</time>
      </trkpt>
      <trkpt lat="47.56953" lon="1.40018">
        <ele>92</ele>
        <time>2026-05-20T15:50:14Z</time>
      </trkpt>
      <trkpt lat="47.56944" lon="1.40036">
        <ele>92</ele>
        <time>2026-05-20T15:50:18Z</time>
      </trkpt>
      <trkpt lat="47.56935" lon="1.40077">
        <ele>93</ele>
        <time>2026-05-20T15:50:25Z</time>
      </trkpt>
      <trkpt lat="47.56935" lon="1.40103">
        <ele>93</ele>
        <time>2026-05-20T15:50:29Z</time>
      </trkpt>
      <trkpt lat="47.56939" lon="1.40113">
        <ele>92</ele>
        <time>2026-05-20T15:50:31Z</time>
      </trkpt>
      <trkpt lat="47.5696" lon="1.40191">
        <ele>92</ele>
        <time>2026-05-20T15:50:44Z</time>
      </trkpt>
      <trkpt lat="47.56961" lon="1.40201">
        <ele>91</ele>
        <time>2026-05-20T15:50:45Z</time>
      </trkpt>
      <trkpt lat="47.56956" lon="1.40205">
        <ele>91</ele>
        <time>2026-05-20T15:50:47Z</time>
      </trkpt>
      <trkpt lat="47.56933" lon="1.40212">
        <ele>92</ele>
        <time>2026-05-20T15:50:52Z</time>
      </trkpt>
      <trkpt lat="47.56917" lon="1.40214">
        <ele>92</ele>
        <time>2026-05-20T15:50:56Z</time>
      </trkpt>
      <trkpt lat="47.56916" lon="1.40219">
        <ele>92</ele>
        <time>2026-05-20T15:50:57Z</time>
      </trkpt>
      <trkpt lat="47.56917" lon="1.40238">
        <ele>92</ele>
        <time>2026-05-20T15:51:00Z</time>
      </trkpt>
      <trkpt lat="47.56924" lon="1.40278">
        <ele>92</ele>
        <time>2026-05-20T15:51:06Z</time>
      </trkpt>
      <trkpt lat="47.56923" lon="1.40332">
        <ele>91.8</ele>
        <time>2026-05-20T15:51:11Z</time>
      </trkpt>
      <trkpt lat="47.56952" lon="1.40403">
        <ele>90.7</ele>
      </trkpt>
      <trkpt lat="47.5696" lon="1.40511">
        <ele>90.4</ele>
      </trkpt>
      <trkpt lat="47.56961" lon="1.40601">
        <ele>90.4</ele>
      </trkpt>
      <trkpt lat="47.56928" lon="1.40666">
        <ele>90.6</ele>
      </trkpt>
      <trkpt lat="47.56943" lon="1.40748">
        <ele>90.9</ele>
      </trkpt>
      <trkpt lat="47.56967" lon="1.40813">
        <ele>90.2</ele>
      </trkpt>
      <trkpt lat="47.56985" lon="1.40903">
        <ele>91</ele>
      </trkpt>
      <trkpt lat="47.5704" lon="1.41039">
        <ele>91</ele>
      </trkpt>
      <trkpt lat="47.57091" lon="1.4117">
        <ele>90</ele>
      </trkpt>
      <trkpt lat="47.5716" lon="1.41208">
        <ele>89.6</ele>
      </trkpt>
      <trkpt lat="47.57226" lon="1.41251">
        <ele>89.1</ele>
      </trkpt>
      <trkpt lat="47.57199" lon="1.41359">
        <ele>88.1</ele>
      </trkpt>
      <trkpt lat="47.57151" lon="1.41352">
        <ele>87.6</ele>
      </trkpt>
      <trkpt lat="47.57035" lon="1.41318">
        <ele>87</ele>
      </trkpt>
      <trkpt lat="47.56992" lon="1.41296">
        <ele>87.6</ele>
      </trkpt>
      <trkpt lat="47.56962" lon="1.4125">
        <ele>88.4</ele>
      </trkpt>
      <trkpt lat="47.56912" lon="1.41164">
        <ele>89.1</ele>
      </trkpt>
      <trkpt lat="47.5675" lon="1.41053">
        <ele>90</ele>
      </trkpt>
      <trkpt lat="47.56524" lon="1.40933">
        <ele>90</ele>
      </trkpt>
      <trkpt lat="47.56515" lon="1.40968">
        <ele>98</ele>
        <time>2026-05-20T15:54:56Z</time>
      </trkpt>
      <trkpt lat="47.56521" lon="1.41024">
        <ele>97</ele>
        <time>2026-05-20T15:55:05Z</time>
      </trkpt>
      <trkpt lat="47.56523" lon="1.41172">
        <ele>95</ele>
        <time>2026-05-20T15:55:28Z</time>
      </trkpt>
      <trkpt lat="47.56529" lon="1.41256">
        <ele>95</ele>
        <time>2026-05-20T15:55:41Z</time>
      </trkpt>
      <trkpt lat="47.56526" lon="1.41304">
        <ele>94</ele>
        <time>2026-05-20T15:55:49Z</time>
      </trkpt>
      <trkpt lat="47.56531" lon="1.41415">
        <ele>95</ele>
        <time>2026-05-20T15:56:07Z</time>
      </trkpt>
      <trkpt lat="47.56529" lon="1.41445">
        <ele>95</ele>
        <time>2026-05-20T15:56:11Z</time>
      </trkpt>
      <trkpt lat="47.56532" lon="1.41493">
        <ele>95</ele>
        <time>2026-05-20T15:56:19Z</time>
      </trkpt>
      <trkpt lat="47.5653" lon="1.41513">
        <ele>96</ele>
        <time>2026-05-20T15:56:22Z</time>
      </trkpt>
      <trkpt lat="47.56533" lon="1.4154">
        <ele>96</ele>
        <time>2026-05-20T15:56:26Z</time>
      </trkpt>
      <trkpt lat="47.56531" lon="1.41554">
        <ele>96</ele>
        <time>2026-05-20T15:56:29Z</time>
      </trkpt>
      <trkpt lat="47.56533" lon="1.41596">
        <ele>96</ele>
        <time>2026-05-20T15:56:35Z</time>
      </trkpt>
      <trkpt lat="47.56531" lon="1.41607">
        <ele>96</ele>
        <time>2026-05-20T15:56:37Z</time>
      </trkpt>
      <trkpt lat="47.56536" lon="1.41643">
        <ele>95</ele>
        <time>2026-05-20T15:56:43Z</time>
      </trkpt>
      <trkpt lat="47.56534" lon="1.41693">
        <ele>95</ele>
        <time>2026-05-20T15:56:51Z</time>
      </trkpt>
      <trkpt lat="47.56536" lon="1.41791">
        <ele>96</ele>
        <time>2026-05-20T15:57:06Z</time>
      </trkpt>
      <trkpt lat="47.56533" lon="1.41814">
        <ele>96</ele>
        <time>2026-05-20T15:57:10Z</time>
      </trkpt>
      <trkpt lat="47.56535" lon="1.41838">
        <ele>96</ele>
        <time>2026-05-20T15:57:14Z</time>
      </trkpt>
      <trkpt lat="47.56538" lon="1.41845">
        <ele>95</ele>
        <time>2026-05-20T15:57:15Z</time>
      </trkpt>
      <trkpt lat="47.56538" lon="1.41888">
        <ele>95</ele>
        <time>2026-05-20T15:57:22Z</time>
      </trkpt>
      <trkpt lat="47.56542" lon="1.41929">
        <ele>94</ele>
        <time>2026-05-20T15:57:28Z</time>
      </trkpt>
      <trkpt lat="47.56541" lon="1.41983">
        <ele>93</ele>
        <time>2026-05-20T15:57:37Z</time>
      </trkpt>
      <trkpt lat="47.56537" lon="1.4199">
        <ele>93</ele>
        <time>2026-05-20T15:57:38Z</time>
      </trkpt>
      <trkpt lat="47.56514" lon="1.41999">
        <ele>94</ele>
        <time>2026-05-20T15:57:44Z</time>
      </trkpt>
      <trkpt lat="47.565" lon="1.42013">
        <ele>94</ele>
        <time>2026-05-20T15:57:48Z</time>
      </trkpt>
      <trkpt lat="47.56485" lon="1.42023">
        <ele>94</ele>
        <time>2026-05-20T15:57:52Z</time>
      </trkpt>
      <trkpt lat="47.56454" lon="1.42048">
        <ele>94</ele>
        <time>2026-05-20T15:58:00Z</time>
      </trkpt>
      <trkpt lat="47.56401" lon="1.42109">
        <ele>93</ele>
        <time>2026-05-20T15:58:16Z</time>
      </trkpt>
      <trkpt lat="47.56383" lon="1.42132">
        <ele>92</ele>
        <time>2026-05-20T15:58:21Z</time>
      </trkpt>
      <trkpt lat="47.56375" lon="1.4215">
        <ele>92</ele>
        <time>2026-05-20T15:58:24Z</time>
      </trkpt>
      <trkpt lat="47.56366" lon="1.42182">
        <ele>92</ele>
        <time>2026-05-20T15:58:30Z</time>
      </trkpt>
      <trkpt lat="47.56342" lon="1.42353">
        <ele>93</ele>
        <time>2026-05-20T15:58:57Z</time>
      </trkpt>
      <trkpt lat="47.56326" lon="1.42421">
        <ele>95</ele>
        <time>2026-05-20T15:59:09Z</time>
      </trkpt>
      <trkpt lat="47.56322" lon="1.42426">
        <ele>95</ele>
        <time>2026-05-20T15:59:10Z</time>
      </trkpt>
      <trkpt lat="47.56315" lon="1.42431">
        <ele>96</ele>
        <time>2026-05-20T15:59:12Z</time>
      </trkpt>
      <trkpt lat="47.56299" lon="1.42424">
        <ele>96</ele>
        <time>2026-05-20T15:59:16Z</time>
      </trkpt>
      <trkpt lat="47.56268" lon="1.42416">
        <ele>98</ele>
        <time>2026-05-20T15:59:23Z</time>
      </trkpt>
      <trkpt lat="47.56233" lon="1.4242">
        <ele>100</ele>
        <time>2026-05-20T15:59:31Z</time>
      </trkpt>
      <trkpt lat="47.56226" lon="1.42429">
        <ele>101</ele>
        <time>2026-05-20T15:59:33Z</time>
      </trkpt>
      <trkpt lat="47.56225" lon="1.4244">
        <ele>101</ele>
        <time>2026-05-20T15:59:35Z</time>
      </trkpt>
      <trkpt lat="47.56227" lon="1.42456">
        <ele>101</ele>
        <time>2026-05-20T15:59:38Z</time>
      </trkpt>
      <trkpt lat="47.56223" lon="1.4246">
        <ele>102</ele>
        <time>2026-05-20T15:59:39Z</time>
      </trkpt>
      <trkpt lat="47.56162" lon="1.42477">
        <ele>103</ele>
        <time>2026-05-20T15:59:53Z</time>
      </trkpt>
      <trkpt lat="47.56159" lon="1.4248">
        <ele>103</ele>
        <time>2026-05-20T15:59:54Z</time>
      </trkpt>
      <trkpt lat="47.56155" lon="1.4248">
        <ele>103</ele>
        <time>2026-05-20T15:59:55Z</time>
      </trkpt>
      <trkpt lat="47.5615" lon="1.42477">
        <ele>103</ele>
        <time>2026-05-20T15:59:56Z</time>
      </trkpt>
      <trkpt lat="47.56132" lon="1.42484">
        <ele>103</ele>
        <time>2026-05-20T16:00:01Z</time>
      </trkpt>
      <trkpt lat="47.56119" lon="1.42486">
        <ele>103</ele>
        <time>2026-05-20T16:00:04Z</time>
      </trkpt>
      <trkpt lat="47.56115" lon="1.4249">
        <ele>103</ele>
        <time>2026-05-20T16:00:05Z</time>
      </trkpt>
      <trkpt lat="47.56103" lon="1.4249">
        <ele>103</ele>
        <time>2026-05-20T16:00:08Z</time>
      </trkpt>
      <trkpt lat="47.561" lon="1.42494">
        <ele>103</ele>
        <time>2026-05-20T16:00:09Z</time>
      </trkpt>
      <trkpt lat="47.5608" lon="1.42492">
        <ele>103</ele>
        <time>2026-05-20T16:00:13Z</time>
      </trkpt>
      <trkpt lat="47.56068" lon="1.42493">
        <ele>103</ele>
        <time>2026-05-20T16:00:16Z</time>
      </trkpt>
      <trkpt lat="47.56067" lon="1.42496">
        <ele>103</ele>
        <time>2026-05-20T16:00:17Z</time>
      </trkpt>
      <trkpt lat="47.56048" lon="1.425">
        <ele>103</ele>
        <time>2026-05-20T16:00:21Z</time>
      </trkpt>
      <trkpt lat="47.56032" lon="1.425">
        <ele>103</ele>
        <time>2026-05-20T16:00:25Z</time>
      </trkpt>
      <trkpt lat="47.56027" lon="1.42503">
        <ele>103</ele>
        <time>2026-05-20T16:00:26Z</time>
      </trkpt>
      <trkpt lat="47.56009" lon="1.42507">
        <ele>103</ele>
        <time>2026-05-20T16:00:30Z</time>
      </trkpt>
      <trkpt lat="47.56006" lon="1.42512">
        <ele>103</ele>
        <time>2026-05-20T16:00:32Z</time>
      </trkpt>
      <trkpt lat="47.55991" lon="1.42514">
        <ele>102</ele>
        <time>2026-05-20T16:00:35Z</time>
      </trkpt>
      <trkpt lat="47.55983" lon="1.42518">
        <ele>102</ele>
        <time>2026-05-20T16:00:37Z</time>
      </trkpt>
      <trkpt lat="47.55969" lon="1.42515">
        <ele>102</ele>
        <time>2026-05-20T16:00:40Z</time>
      </trkpt>
      <trkpt lat="47.55949" lon="1.42518">
        <ele>101</ele>
        <time>2026-05-20T16:00:45Z</time>
      </trkpt>
      <trkpt lat="47.55929" lon="1.42524">
        <ele>100</ele>
        <time>2026-05-20T16:00:50Z</time>
      </trkpt>
      <trkpt lat="47.55911" lon="1.42526">
        <ele>100</ele>
        <time>2026-05-20T16:00:54Z</time>
      </trkpt>
      <trkpt lat="47.55888" lon="1.42534">
        <ele>100</ele>
        <time>2026-05-20T16:00:59Z</time>
      </trkpt>
      <trkpt lat="47.5584" lon="1.42542">
        <ele>101</ele>
        <time>2026-05-20T16:01:11Z</time>
      </trkpt>
      <trkpt lat="47.55818" lon="1.4255">
        <ele>103</ele>
        <time>2026-05-20T16:01:16Z</time>
      </trkpt>
      <trkpt lat="47.55812" lon="1.42558">
        <ele>103</ele>
        <time>2026-05-20T16:01:18Z</time>
      </trkpt>
      <trkpt lat="47.55808" lon="1.42569">
        <ele>104</ele>
        <time>2026-05-20T16:01:20Z</time>
      </trkpt>
      <trkpt lat="47.55809" lon="1.42584">
        <ele>104</ele>
        <time>2026-05-20T16:01:22Z</time>
      </trkpt>
      <trkpt lat="47.55805" lon="1.42597">
        <ele>104</ele>
        <time>2026-05-20T16:01:25Z</time>
      </trkpt>
      <trkpt lat="47.55809" lon="1.42612">
        <ele>104</ele>
        <time>2026-05-20T16:01:27Z</time>
      </trkpt>
      <trkpt lat="47.55809" lon="1.42639">
        <ele>104</ele>
        <time>2026-05-20T16:01:31Z</time>
      </trkpt>
      <trkpt lat="47.55807" lon="1.42649">
        <ele>104</ele>
        <time>2026-05-20T16:01:33Z</time>
      </trkpt>
      <trkpt lat="47.55811" lon="1.4269">
        <ele>104</ele>
        <time>2026-05-20T16:01:40Z</time>
      </trkpt>
      <trkpt lat="47.55808" lon="1.42706">
        <ele>104</ele>
        <time>2026-05-20T16:01:42Z</time>
      </trkpt>
      <trkpt lat="47.5581" lon="1.42731">
        <ele>105</ele>
        <time>2026-05-20T16:01:46Z</time>
      </trkpt>
      <trkpt lat="47.55818" lon="1.4277">
        <ele>105</ele>
        <time>2026-05-20T16:01:53Z</time>
      </trkpt>
      <trkpt lat="47.55816" lon="1.42776">
        <ele>105</ele>
        <time>2026-05-20T16:01:54Z</time>
      </trkpt>
      <trkpt lat="47.55817" lon="1.42822">
        <ele>106</ele>
        <time>2026-05-20T16:02:01Z</time>
      </trkpt>
      <trkpt lat="47.55815" lon="1.42831">
        <ele>106</ele>
        <time>2026-05-20T16:02:02Z</time>
      </trkpt>
      <trkpt lat="47.55817" lon="1.42873">
        <ele>107</ele>
        <time>2026-05-20T16:02:09Z</time>
      </trkpt>
      <trkpt lat="47.55823" lon="1.42901">
        <ele>107</ele>
        <time>2026-05-20T16:02:14Z</time>
      </trkpt>
      <trkpt lat="47.55823" lon="1.42961">
        <ele>108</ele>
        <time>2026-05-20T16:02:23Z</time>
      </trkpt>
      <trkpt lat="47.55825" lon="1.4297">
        <ele>108</ele>
        <time>2026-05-20T16:02:25Z</time>
      </trkpt>
      <trkpt lat="47.55823" lon="1.42991">
        <ele>108</ele>
        <time>2026-05-20T16:02:28Z</time>
      </trkpt>
      <trkpt lat="47.55825" lon="1.43007">
        <ele>108</ele>
        <time>2026-05-20T16:02:30Z</time>
      </trkpt>
      <trkpt lat="47.55824" lon="1.43012">
        <ele>108</ele>
        <time>2026-05-20T16:02:31Z</time>
      </trkpt>
      <trkpt lat="47.55826" lon="1.43024">
        <ele>108</ele>
        <time>2026-05-20T16:02:33Z</time>
      </trkpt>
      <trkpt lat="47.5583" lon="1.4303">
        <ele>108</ele>
        <time>2026-05-20T16:02:35Z</time>
      </trkpt>
      <trkpt lat="47.55828" lon="1.43042">
        <ele>108</ele>
        <time>2026-05-20T16:02:36Z</time>
      </trkpt>
      <trkpt lat="47.55833" lon="1.43063">
        <ele>107</ele>
        <time>2026-05-20T16:02:40Z</time>
      </trkpt>
      <trkpt lat="47.55831" lon="1.43082">
        <ele>107</ele>
        <time>2026-05-20T16:02:43Z</time>
      </trkpt>
      <trkpt lat="47.55834" lon="1.43092">
        <ele>107</ele>
        <time>2026-05-20T16:02:45Z</time>
      </trkpt>
      <trkpt lat="47.55837" lon="1.43126">
        <ele>106</ele>
        <time>2026-05-20T16:02:50Z</time>
      </trkpt>
      <trkpt lat="47.55836" lon="1.4314">
        <ele>106</ele>
        <time>2026-05-20T16:02:52Z</time>
      </trkpt>
      <trkpt lat="47.55834" lon="1.43146">
        <ele>106</ele>
        <time>2026-05-20T16:02:53Z</time>
      </trkpt>
      <trkpt lat="47.55836" lon="1.43152">
        <ele>106</ele>
        <time>2026-05-20T16:02:54Z</time>
      </trkpt>
      <trkpt lat="47.55835" lon="1.43178">
        <ele>106</ele>
        <time>2026-05-20T16:02:59Z</time>
      </trkpt>
      <trkpt lat="47.55838" lon="1.43182">
        <ele>106</ele>
        <time>2026-05-20T16:03:00Z</time>
      </trkpt>
      <trkpt lat="47.5584" lon="1.43191">
        <ele>106</ele>
        <time>2026-05-20T16:03:01Z</time>
      </trkpt>
      <trkpt lat="47.55837" lon="1.43214">
        <ele>106</ele>
        <time>2026-05-20T16:03:05Z</time>
      </trkpt>
      <trkpt lat="47.55838" lon="1.43241">
        <ele>106</ele>
        <time>2026-05-20T16:03:09Z</time>
      </trkpt>
      <trkpt lat="47.55846" lon="1.43282">
        <ele>106</ele>
        <time>2026-05-20T16:03:16Z</time>
      </trkpt>
      <trkpt lat="47.55846" lon="1.43304">
        <ele>106</ele>
        <time>2026-05-20T16:03:19Z</time>
      </trkpt>
      <trkpt lat="47.55848" lon="1.4332">
        <ele>106</ele>
        <time>2026-05-20T16:03:22Z</time>
      </trkpt>
      <trkpt lat="47.55846" lon="1.43327">
        <ele>106</ele>
        <time>2026-05-20T16:03:23Z</time>
      </trkpt>
      <trkpt lat="47.55848" lon="1.43336">
        <ele>106</ele>
        <time>2026-05-20T16:03:24Z</time>
      </trkpt>
      <trkpt lat="47.55846" lon="1.43368">
        <ele>107</ele>
        <time>2026-05-20T16:03:30Z</time>
      </trkpt>
      <trkpt lat="47.55829" lon="1.43369">
        <ele>107</ele>
        <time>2026-05-20T16:03:33Z</time>
      </trkpt>
      <trkpt lat="47.55823" lon="1.43367">
        <ele>107</ele>
        <time>2026-05-20T16:03:35Z</time>
      </trkpt>
      <trkpt lat="47.55813" lon="1.4337">
        <ele>107</ele>
        <time>2026-05-20T16:03:37Z</time>
      </trkpt>
      <trkpt lat="47.558" lon="1.4337">
        <ele>107</ele>
        <time>2026-05-20T16:03:40Z</time>
      </trkpt>
      <trkpt lat="47.55764" lon="1.43361">
        <ele>108</ele>
        <time>2026-05-20T16:03:49Z</time>
      </trkpt>
      <trkpt lat="47.55753" lon="1.43368">
        <ele>108</ele>
        <time>2026-05-20T16:03:52Z</time>
      </trkpt>
      <trkpt lat="47.55743" lon="1.43368">
        <ele>107</ele>
        <time>2026-05-20T16:03:54Z</time>
      </trkpt>
      <trkpt lat="47.55737" lon="1.43366">
        <ele>107</ele>
        <time>2026-05-20T16:03:55Z</time>
      </trkpt>
      <trkpt lat="47.55728" lon="1.43374">
        <ele>107</ele>
        <time>2026-05-20T16:03:58Z</time>
      </trkpt>
      <trkpt lat="47.55725" lon="1.43374">
        <ele>107</ele>
        <time>2026-05-20T16:03:59Z</time>
      </trkpt>
      <trkpt lat="47.55707" lon="1.43367">
        <ele>107</ele>
        <time>2026-05-20T16:04:03Z</time>
      </trkpt>
      <trkpt lat="47.55701" lon="1.43367">
        <ele>107</ele>
        <time>2026-05-20T16:04:04Z</time>
      </trkpt>
      <trkpt lat="47.5569" lon="1.43364">
        <ele>106</ele>
        <time>2026-05-20T16:04:07Z</time>
      </trkpt>
      <trkpt lat="47.55665" lon="1.43367">
        <ele>106</ele>
        <time>2026-05-20T16:04:13Z</time>
      </trkpt>
      <trkpt lat="47.55657" lon="1.43362">
        <ele>106</ele>
        <time>2026-05-20T16:04:15Z</time>
      </trkpt>
      <trkpt lat="47.55641" lon="1.43361">
        <ele>105</ele>
        <time>2026-05-20T16:04:19Z</time>
      </trkpt>
      <trkpt lat="47.55627" lon="1.43358">
        <ele>105</ele>
        <time>2026-05-20T16:04:22Z</time>
      </trkpt>
      <trkpt lat="47.55623" lon="1.43351">
        <ele>105</ele>
        <time>2026-05-20T16:04:23Z</time>
      </trkpt>
      <trkpt lat="47.5562" lon="1.4335">
        <ele>105</ele>
        <time>2026-05-20T16:04:24Z</time>
      </trkpt>
      <trkpt lat="47.55617" lon="1.43351">
        <ele>105</ele>
        <time>2026-05-20T16:04:25Z</time>
      </trkpt>
      <trkpt lat="47.55609" lon="1.43359">
        <ele>104</ele>
        <time>2026-05-20T16:04:27Z</time>
      </trkpt>
      <trkpt lat="47.55603" lon="1.4336">
        <ele>104</ele>
        <time>2026-05-20T16:04:28Z</time>
      </trkpt>
      <trkpt lat="47.55582" lon="1.43359">
        <ele>104</ele>
        <time>2026-05-20T16:04:33Z</time>
      </trkpt>
      <trkpt lat="47.55571" lon="1.43353">
        <ele>104</ele>
        <time>2026-05-20T16:04:36Z</time>
      </trkpt>
      <trkpt lat="47.55562" lon="1.43359">
        <ele>103</ele>
        <time>2026-05-20T16:04:38Z</time>
      </trkpt>
      <trkpt lat="47.55548" lon="1.43354">
        <ele>103</ele>
        <time>2026-05-20T16:04:42Z</time>
      </trkpt>
      <trkpt lat="47.55541" lon="1.43357">
        <ele>103</ele>
        <time>2026-05-20T16:04:43Z</time>
      </trkpt>
      <trkpt lat="47.55517" lon="1.43346">
        <ele>102</ele>
        <time>2026-05-20T16:04:49Z</time>
      </trkpt>
      <trkpt lat="47.55508" lon="1.43346">
        <ele>102</ele>
        <time>2026-05-20T16:04:51Z</time>
      </trkpt>
      <trkpt lat="47.55503" lon="1.43354">
        <ele>102</ele>
        <time>2026-05-20T16:04:53Z</time>
      </trkpt>
      <trkpt lat="47.555" lon="1.43356">
        <ele>102</ele>
        <time>2026-05-20T16:04:54Z</time>
      </trkpt>
      <trkpt lat="47.55481" lon="1.43353">
        <ele>103</ele>
        <time>2026-05-20T16:04:58Z</time>
      </trkpt>
      <trkpt lat="47.55473" lon="1.43354">
        <ele>103</ele>
        <time>2026-05-20T16:05:00Z</time>
      </trkpt>
      <trkpt lat="47.55467" lon="1.43357">
        <ele>103</ele>
        <time>2026-05-20T16:05:02Z</time>
      </trkpt>
      <trkpt lat="47.55457" lon="1.43358">
        <ele>104</ele>
        <time>2026-05-20T16:05:04Z</time>
      </trkpt>
      <trkpt lat="47.55448" lon="1.43351">
        <ele>104</ele>
        <time>2026-05-20T16:05:06Z</time>
      </trkpt>
      <trkpt lat="47.55438" lon="1.43351">
        <ele>105</ele>
        <time>2026-05-20T16:05:09Z</time>
      </trkpt>
      <trkpt lat="47.55378" lon="1.43333">
        <ele>106</ele>
        <time>2026-05-20T16:05:23Z</time>
      </trkpt>
      <trkpt lat="47.55375" lon="1.43335">
        <ele>106</ele>
        <time>2026-05-20T16:05:24Z</time>
      </trkpt>
      <trkpt lat="47.55336" lon="1.43321">
        <ele>107</ele>
        <time>2026-05-20T16:05:33Z</time>
      </trkpt>
      <trkpt lat="47.55319" lon="1.43318">
        <ele>107</ele>
        <time>2026-05-20T16:05:37Z</time>
      </trkpt>
      <trkpt lat="47.55291" lon="1.43309">
        <ele>107</ele>
        <time>2026-05-20T16:05:44Z</time>
      </trkpt>
      <trkpt lat="47.55286" lon="1.4331">
        <ele>107</ele>
        <time>2026-05-20T16:05:45Z</time>
      </trkpt>
      <trkpt lat="47.55252" lon="1.43304">
        <ele>106</ele>
        <time>2026-05-20T16:05:53Z</time>
      </trkpt>
      <trkpt lat="47.55244" lon="1.433">
        <ele>106</ele>
        <time>2026-05-20T16:05:55Z</time>
      </trkpt>
      <trkpt lat="47.55229" lon="1.43301">
        <ele>106</ele>
        <time>2026-05-20T16:05:59Z</time>
      </trkpt>
      <trkpt lat="47.5521" lon="1.43298">
        <ele>106</ele>
        <time>2026-05-20T16:06:03Z</time>
      </trkpt>
      <trkpt lat="47.55197" lon="1.43295">
        <ele>106</ele>
        <time>2026-05-20T16:06:06Z</time>
      </trkpt>
      <trkpt lat="47.55194" lon="1.4329">
        <ele>106</ele>
        <time>2026-05-20T16:06:07Z</time>
      </trkpt>
      <trkpt lat="47.55186" lon="1.43287">
        <ele>106</ele>
        <time>2026-05-20T16:06:09Z</time>
      </trkpt>
      <trkpt lat="47.55141" lon="1.43281">
        <ele>106</ele>
        <time>2026-05-20T16:06:20Z</time>
      </trkpt>
      <trkpt lat="47.55117" lon="1.43274">
        <ele>105</ele>
        <time>2026-05-20T16:06:25Z</time>
      </trkpt>
      <trkpt lat="47.55106" lon="1.43276">
        <ele>105</ele>
        <time>2026-05-20T16:06:28Z</time>
      </trkpt>
      <trkpt lat="47.55099" lon="1.43272">
        <ele>105</ele>
        <time>2026-05-20T16:06:30Z</time>
      </trkpt>
      <trkpt lat="47.55092" lon="1.43275">
        <ele>105</ele>
        <time>2026-05-20T16:06:31Z</time>
      </trkpt>
      <trkpt lat="47.55088" lon="1.4328">
        <ele>105</ele>
        <time>2026-05-20T16:06:33Z</time>
      </trkpt>
      <trkpt lat="47.55084" lon="1.4328">
        <ele>105</ele>
        <time>2026-05-20T16:06:33Z</time>
      </trkpt>
      <trkpt lat="47.55075" lon="1.43276">
        <ele>105</ele>
        <time>2026-05-20T16:06:36Z</time>
      </trkpt>
      <trkpt lat="47.55072" lon="1.43271">
        <ele>105</ele>
        <time>2026-05-20T16:06:37Z</time>
      </trkpt>
      <trkpt lat="47.55062" lon="1.43262">
        <ele>105</ele>
        <time>2026-05-20T16:06:39Z</time>
      </trkpt>
      <trkpt lat="47.55049" lon="1.43261">
        <ele>105</ele>
        <time>2026-05-20T16:06:43Z</time>
      </trkpt>
      <trkpt lat="47.55041" lon="1.43254">
        <ele>105</ele>
        <time>2026-05-20T16:06:45Z</time>
      </trkpt>
      <trkpt lat="47.55029" lon="1.43254">
        <ele>105</ele>
        <time>2026-05-20T16:06:47Z</time>
      </trkpt>
      <trkpt lat="47.55019" lon="1.43251">
        <ele>105</ele>
        <time>2026-05-20T16:06:50Z</time>
      </trkpt>
      <trkpt lat="47.55014" lon="1.43243">
        <ele>105</ele>
        <time>2026-05-20T16:06:52Z</time>
      </trkpt>
      <trkpt lat="47.55007" lon="1.43239">
        <ele>105</ele>
        <time>2026-05-20T16:06:53Z</time>
      </trkpt>
      <trkpt lat="47.5499" lon="1.43248">
        <ele>105</ele>
        <time>2026-05-20T16:06:58Z</time>
      </trkpt>
      <trkpt lat="47.54983" lon="1.43244">
        <ele>105</ele>
        <time>2026-05-20T16:06:59Z</time>
      </trkpt>
      <trkpt lat="47.54926" lon="1.43232">
        <ele>104</ele>
        <time>2026-05-20T16:07:13Z</time>
      </trkpt>
      <trkpt lat="47.54869" lon="1.43213">
        <ele>106</ele>
        <time>2026-05-20T16:07:26Z</time>
      </trkpt>
      <trkpt lat="47.54867" lon="1.43214">
        <ele>106</ele>
        <time>2026-05-20T16:07:27Z</time>
      </trkpt>
      <trkpt lat="47.54862" lon="1.43211">
        <ele>106</ele>
        <time>2026-05-20T16:07:28Z</time>
      </trkpt>
      <trkpt lat="47.54857" lon="1.43204">
        <ele>106</ele>
        <time>2026-05-20T16:07:30Z</time>
      </trkpt>
      <trkpt lat="47.54844" lon="1.43195">
        <ele>106</ele>
        <time>2026-05-20T16:07:33Z</time>
      </trkpt>
      <trkpt lat="47.54834" lon="1.43193">
        <ele>107</ele>
        <time>2026-05-20T16:07:35Z</time>
      </trkpt>
      <trkpt lat="47.54799" lon="1.43199">
        <ele>107</ele>
        <time>2026-05-20T16:07:44Z</time>
      </trkpt>
      <trkpt lat="47.54782" lon="1.43192">
        <ele>106</ele>
        <time>2026-05-20T16:07:48Z</time>
      </trkpt>
      <trkpt lat="47.54736" lon="1.43187">
        <ele>106</ele>
        <time>2026-05-20T16:07:59Z</time>
      </trkpt>
      <trkpt lat="47.54705" lon="1.43175">
        <ele>106</ele>
        <time>2026-05-20T16:08:06Z</time>
      </trkpt>
      <trkpt lat="47.54702" lon="1.4318">
        <ele>107</ele>
        <time>2026-05-20T16:08:07Z</time>
      </trkpt>
      <trkpt lat="47.54681" lon="1.43171">
        <ele>107</ele>
        <time>2026-05-20T16:08:12Z</time>
      </trkpt>
      <trkpt lat="47.54667" lon="1.43172">
        <ele>107</ele>
        <time>2026-05-20T16:08:16Z</time>
      </trkpt>
      <trkpt lat="47.54658" lon="1.43169">
        <ele>107</ele>
        <time>2026-05-20T16:08:18Z</time>
      </trkpt>
      <trkpt lat="47.54656" lon="1.43171">
        <ele>107</ele>
        <time>2026-05-20T16:08:18Z</time>
      </trkpt>
      <trkpt lat="47.54653" lon="1.43171">
        <ele>107</ele>
        <time>2026-05-20T16:08:19Z</time>
      </trkpt>
      <trkpt lat="47.5465" lon="1.43168">
        <ele>107</ele>
        <time>2026-05-20T16:08:20Z</time>
      </trkpt>
      <trkpt lat="47.54636" lon="1.43163">
        <ele>106</ele>
        <time>2026-05-20T16:08:23Z</time>
      </trkpt>
      <trkpt lat="47.54628" lon="1.43163">
        <ele>106</ele>
        <time>2026-05-20T16:08:25Z</time>
      </trkpt>
      <trkpt lat="47.5461" lon="1.43156">
        <ele>105</ele>
        <time>2026-05-20T16:08:29Z</time>
      </trkpt>
      <trkpt lat="47.54563" lon="1.43146">
        <ele>104</ele>
        <time>2026-05-20T16:08:40Z</time>
      </trkpt>
      <trkpt lat="47.54545" lon="1.43145">
        <ele>103</ele>
        <time>2026-05-20T16:08:45Z</time>
      </trkpt>
      <trkpt lat="47.54502" lon="1.43131">
        <ele>102</ele>
        <time>2026-05-20T16:08:55Z</time>
      </trkpt>
      <trkpt lat="47.54492" lon="1.43125">
        <ele>101</ele>
        <time>2026-05-20T16:08:57Z</time>
      </trkpt>
      <trkpt lat="47.54494" lon="1.43097">
        <ele>88.6</ele>
        <time>2026-05-20T16:09:00Z</time>
      </trkpt>
      <trkpt lat="47.54564" lon="1.42907">
        <ele>90.6</ele>
      </trkpt>
      <trkpt lat="47.54685" lon="1.42592">
        <ele>93.7</ele>
      </trkpt>
      <trkpt lat="47.54718" lon="1.42507">
        <ele>93</ele>
      </trkpt>
      <trkpt lat="47.54693" lon="1.42501">
        <ele>93.1</ele>
      </trkpt>
      <trkpt lat="47.54606" lon="1.42518">
        <ele>95</ele>
      </trkpt>
      <trkpt lat="47.54564" lon="1.42527">
        <ele>95</ele>
      </trkpt>
      <trkpt lat="47.54532" lon="1.42517">
        <ele>93.6</ele>
      </trkpt>
      <trkpt lat="47.54512" lon="1.42522">
        <ele>93.7</ele>
      </trkpt>
      <trkpt lat="47.54493" lon="1.4254">
        <ele>94.3</ele>
      </trkpt>
      <trkpt lat="47.54221" lon="1.4259">
        <ele>96</ele>
      </trkpt>
      <trkpt lat="47.54133" lon="1.42603">
        <ele>93.8</ele>
      </trkpt>
      <trkpt lat="47.54055" lon="1.42629">
        <ele>91</ele>
      </trkpt>
      <trkpt lat="47.54235" lon="1.42848">
        <ele>92.7</ele>
      </trkpt>
      <trkpt lat="47.54445" lon="1.43092">
        <ele>88.7</ele>
      </trkpt>
      <trkpt lat="47.54475" lon="1.43116">
        <ele>88.7</ele>
      </trkpt>
      <trkpt lat="47.54475" lon="1.43152">
        <ele>88.1</ele>
      </trkpt>
      <trkpt lat="47.544" lon="1.43325">
        <ele>102</ele>
        <time>2026-05-20T16:09:39Z</time>
      </trkpt>
      <trkpt lat="47.54395" lon="1.43346">
        <ele>101</ele>
        <time>2026-05-20T16:09:42Z</time>
      </trkpt>
      <trkpt lat="47.54368" lon="1.4341">
        <ele>95</ele>
        <time>2026-05-20T16:09:54Z</time>
      </trkpt>
      <trkpt lat="47.54349" lon="1.43401">
        <ele>94</ele>
        <time>2026-05-20T16:09:59Z</time>
      </trkpt>
      <trkpt lat="47.54325" lon="1.43372">
        <ele>94</ele>
        <time>2026-05-20T16:10:06Z</time>
      </trkpt>
      <trkpt lat="47.54255" lon="1.43302">
        <ele>92</ele>
        <time>2026-05-20T16:10:26Z</time>
      </trkpt>
      <trkpt lat="47.54096" lon="1.43156">
        <ele>94</ele>
        <time>2026-05-20T16:11:09Z</time>
      </trkpt>
      <trkpt lat="47.54028" lon="1.43103">
        <ele>95</ele>
        <time>2026-05-20T16:11:27Z</time>
      </trkpt>
      <trkpt lat="47.53977" lon="1.43042">
        <ele>97</ele>
        <time>2026-05-20T16:11:43Z</time>
      </trkpt>
      <trkpt lat="47.53974" lon="1.43035">
        <ele>97</ele>
        <time>2026-05-20T16:11:44Z</time>
      </trkpt>
      <trkpt lat="47.53942" lon="1.42984">
        <ele>99</ele>
        <time>2026-05-20T16:11:55Z</time>
      </trkpt>
      <trkpt lat="47.53909" lon="1.42906">
        <ele>101</ele>
        <time>2026-05-20T16:12:09Z</time>
      </trkpt>
      <trkpt lat="47.53908" lon="1.42885">
        <ele>102</ele>
        <time>2026-05-20T16:12:13Z</time>
      </trkpt>
      <trkpt lat="47.53893" lon="1.42852">
        <ele>103</ele>
        <time>2026-05-20T16:12:19Z</time>
      </trkpt>
      <trkpt lat="47.53881" lon="1.42818">
        <ele>104</ele>
        <time>2026-05-20T16:12:25Z</time>
      </trkpt>
      <trkpt lat="47.53847" lon="1.4271">
        <ele>105</ele>
        <time>2026-05-20T16:12:44Z</time>
      </trkpt>
      <trkpt lat="47.53819" lon="1.42634">
        <ele>102</ele>
        <time>2026-05-20T16:12:57Z</time>
      </trkpt>
      <trkpt lat="47.53807" lon="1.42594">
        <ele>100</ele>
        <time>2026-05-20T16:13:04Z</time>
      </trkpt>
      <trkpt lat="47.53782" lon="1.42487">
        <ele>98</ele>
        <time>2026-05-20T16:13:22Z</time>
      </trkpt>
      <trkpt lat="47.53757" lon="1.42392">
        <ele>95</ele>
        <time>2026-05-20T16:13:38Z</time>
      </trkpt>
      <trkpt lat="47.5374" lon="1.42311">
        <ele>94</ele>
        <time>2026-05-20T16:13:52Z</time>
      </trkpt>
      <trkpt lat="47.53719" lon="1.42236">
        <ele>97</ele>
        <time>2026-05-20T16:14:04Z</time>
      </trkpt>
      <trkpt lat="47.53726" lon="1.42234">
        <ele>97</ele>
        <time>2026-05-20T16:14:06Z</time>
      </trkpt>
      <trkpt lat="47.5373" lon="1.42229">
        <ele>98</ele>
        <time>2026-05-20T16:14:07Z</time>
      </trkpt>
      <trkpt lat="47.5374" lon="1.42208">
        <ele>99</ele>
        <time>2026-05-20T16:14:11Z</time>
      </trkpt>
      <trkpt lat="47.53755" lon="1.42187">
        <ele>101</ele>
        <time>2026-05-20T16:14:16Z</time>
      </trkpt>
      <trkpt lat="47.53773" lon="1.42155">
        <ele>102</ele>
        <time>2026-05-20T16:14:23Z</time>
      </trkpt>
      <trkpt lat="47.53782" lon="1.42143">
        <ele>103</ele>
        <time>2026-05-20T16:14:26Z</time>
      </trkpt>
      <trkpt lat="47.53823" lon="1.42076">
        <ele>106</ele>
        <time>2026-05-20T16:14:40Z</time>
      </trkpt>
      <trkpt lat="47.53844" lon="1.42029">
        <ele>105</ele>
        <time>2026-05-20T16:14:49Z</time>
      </trkpt>
      <trkpt lat="47.53865" lon="1.41994">
        <ele>105</ele>
        <time>2026-05-20T16:14:56Z</time>
      </trkpt>
      <trkpt lat="47.53893" lon="1.41953">
        <ele>106</ele>
        <time>2026-05-20T16:15:05Z</time>
      </trkpt>
      <trkpt lat="47.53933" lon="1.41882">
        <ele>108</ele>
        <time>2026-05-20T16:15:20Z</time>
      </trkpt>
      <trkpt lat="47.53951" lon="1.41854">
        <ele>109</ele>
        <time>2026-05-20T16:15:26Z</time>
      </trkpt>
      <trkpt lat="47.53968" lon="1.41817">
        <ele>108</ele>
        <time>2026-05-20T16:15:33Z</time>
      </trkpt>
      <trkpt lat="47.53983" lon="1.41794">
        <ele>107</ele>
        <time>2026-05-20T16:15:38Z</time>
      </trkpt>
      <trkpt lat="47.53988" lon="1.41783">
        <ele>107</ele>
        <time>2026-05-20T16:15:40Z</time>
      </trkpt>
      <trkpt lat="47.53994" lon="1.41779">
        <ele>107</ele>
        <time>2026-05-20T16:15:42Z</time>
      </trkpt>
      <trkpt lat="47.53996" lon="1.41773">
        <ele>106</ele>
        <time>2026-05-20T16:15:43Z</time>
      </trkpt>
      <trkpt lat="47.53987" lon="1.41762">
        <ele>106</ele>
        <time>2026-05-20T16:15:45Z</time>
      </trkpt>
      <trkpt lat="47.54085" lon="1.41606">
        <ele>104</ele>
        <time>2026-05-20T16:16:19Z</time>
      </trkpt>
      <trkpt lat="47.53933" lon="1.41415">
        <ele>100</ele>
        <time>2026-05-20T16:17:06Z</time>
      </trkpt>
      <trkpt lat="47.53834" lon="1.41424">
        <ele>100</ele>
        <time>2026-05-20T16:17:29Z</time>
      </trkpt>
      <trkpt lat="47.53806" lon="1.41417">
        <ele>99</ele>
        <time>2026-05-20T16:17:35Z</time>
      </trkpt>
      <trkpt lat="47.53784" lon="1.41422">
        <ele>99</ele>
        <time>2026-05-20T16:17:41Z</time>
      </trkpt>
      <trkpt lat="47.53779" lon="1.41421">
        <ele>99</ele>
        <time>2026-05-20T16:17:42Z</time>
      </trkpt>
      <trkpt lat="47.53688" lon="1.41438">
        <ele>99</ele>
        <time>2026-05-20T16:18:03Z</time>
      </trkpt>
      <trkpt lat="47.53556" lon="1.41468">
        <ele>94</ele>
        <time>2026-05-20T16:18:34Z</time>
      </trkpt>
      <trkpt lat="47.53529" lon="1.4147">
        <ele>92</ele>
        <time>2026-05-20T16:18:41Z</time>
      </trkpt>
      <trkpt lat="47.53514" lon="1.41475">
        <ele>91</ele>
        <time>2026-05-20T16:18:44Z</time>
      </trkpt>
      <trkpt lat="47.53451" lon="1.41634">
        <ele>80.4</ele>
      </trkpt>
      <trkpt lat="47.53371" lon="1.41796">
        <ele>76.5</ele>
        <time>2026-05-20T16:18:47Z</time>
      </trkpt>
      <trkpt lat="47.53366" lon="1.41778">
        <ele>76.4</ele>
        <time>2026-05-20T16:18:53Z</time>
      </trkpt>
      <trkpt lat="47.53363" lon="1.41724">
        <ele>77.1</ele>
        <time>2026-05-20T16:18:55Z</time>
      </trkpt>
      <trkpt lat="47.53371" lon="1.41673">
        <ele>77.6</ele>
      </trkpt>
      <trkpt lat="47.53378" lon="1.4163">
        <ele>78.1</ele>
      </trkpt>
      <trkpt lat="47.53423" lon="1.41589">
        <ele>79.5</ele>
      </trkpt>
      <trkpt lat="47.53434" lon="1.41572">
        <ele>80.4</ele>
        <time>2026-05-20T16:18:58Z</time>
      </trkpt>
      <trkpt lat="47.53444" lon="1.41516">
        <ele>81</ele>
        <time>2026-05-20T16:19:01Z</time>
      </trkpt>
      <trkpt lat="47.53447" lon="1.41475">
        <ele>85</ele>
        <time>2026-05-20T16:19:05Z</time>
      </trkpt>
      <trkpt lat="47.53447" lon="1.41434">
        <ele>85</ele>
        <time>2026-05-20T16:19:11Z</time>
      </trkpt>
      <trkpt lat="47.53454" lon="1.41403">
        <ele>85</ele>
        <time>2026-05-20T16:19:16Z</time>
      </trkpt>
      <trkpt lat="47.53464" lon="1.41375">
        <ele>87</ele>
        <time>2026-05-20T16:19:21Z</time>
      </trkpt>
      <trkpt lat="47.53477" lon="1.4135">
        <ele>88</ele>
        <time>2026-05-20T16:19:26Z</time>
      </trkpt>
      <trkpt lat="47.53486" lon="1.41336">
        <ele>88</ele>
        <time>2026-05-20T16:19:29Z</time>
      </trkpt>
      <trkpt lat="47.53515" lon="1.41314">
        <ele>90</ele>
        <time>2026-05-20T16:19:37Z</time>
      </trkpt>
      <trkpt lat="47.53532" lon="1.41294">
        <ele>90</ele>
        <time>2026-05-20T16:19:42Z</time>
      </trkpt>
      <trkpt lat="47.53563" lon="1.41225">
        <ele>89</ele>
        <time>2026-05-20T16:19:55Z</time>
      </trkpt>
      <trkpt lat="47.53589" lon="1.4119">
        <ele>88</ele>
        <time>2026-05-20T16:20:03Z</time>
      </trkpt>
      <trkpt lat="47.53623" lon="1.41159">
        <ele>89</ele>
        <time>2026-05-20T16:20:12Z</time>
      </trkpt>
      <trkpt lat="47.53643" lon="1.41136">
        <ele>90</ele>
        <time>2026-05-20T16:20:18Z</time>
      </trkpt>
      <trkpt lat="47.53661" lon="1.41104">
        <ele>90</ele>
        <time>2026-05-20T16:20:25Z</time>
      </trkpt>
      <trkpt lat="47.53668" lon="1.41082">
        <ele>90</ele>
        <time>2026-05-20T16:20:29Z</time>
      </trkpt>
      <trkpt lat="47.53673" lon="1.41056">
        <ele>90</ele>
        <time>2026-05-20T16:20:33Z</time>
      </trkpt>
      <trkpt lat="47.53674" lon="1.41028">
        <ele>90</ele>
        <time>2026-05-20T16:20:37Z</time>
      </trkpt>
      <trkpt lat="47.53659" lon="1.40915">
        <ele>90</ele>
        <time>2026-05-20T16:20:56Z</time>
      </trkpt>
      <trkpt lat="47.53656" lon="1.40873">
        <ele>90</ele>
        <time>2026-05-20T16:21:02Z</time>
      </trkpt>
      <trkpt lat="47.53668" lon="1.40768">
        <ele>88</ele>
        <time>2026-05-20T16:21:19Z</time>
      </trkpt>
      <trkpt lat="47.53669" lon="1.40673">
        <ele>89</ele>
        <time>2026-05-20T16:21:34Z</time>
      </trkpt>
      <trkpt lat="47.53684" lon="1.4057">
        <ele>88</ele>
        <time>2026-05-20T16:21:51Z</time>
      </trkpt>
      <trkpt lat="47.53689" lon="1.40505">
        <ele>87</ele>
        <time>2026-05-20T16:22:01Z</time>
      </trkpt>
      <trkpt lat="47.53687" lon="1.40401">
        <ele>85</ele>
        <time>2026-05-20T16:22:17Z</time>
      </trkpt>
      <trkpt lat="47.53689" lon="1.40349">
        <ele>86</ele>
        <time>2026-05-20T16:22:26Z</time>
      </trkpt>
      <trkpt lat="47.53692" lon="1.40334">
        <ele>86</ele>
        <time>2026-05-20T16:22:28Z</time>
      </trkpt>
      <trkpt lat="47.537" lon="1.40317">
        <ele>87</ele>
        <time>2026-05-20T16:22:31Z</time>
      </trkpt>
      <trkpt lat="47.53717" lon="1.40295">
        <ele>87</ele>
        <time>2026-05-20T16:22:37Z</time>
      </trkpt>
      <trkpt lat="47.53749" lon="1.40239">
        <ele>88</ele>
        <time>2026-05-20T16:22:48Z</time>
      </trkpt>
      <trkpt lat="47.538" lon="1.40171">
        <ele>93</ele>
        <time>2026-05-20T16:23:04Z</time>
      </trkpt>
      <trkpt lat="47.53804" lon="1.4016">
        <ele>93</ele>
        <time>2026-05-20T16:23:06Z</time>
      </trkpt>
      <trkpt lat="47.53786" lon="1.40139">
        <ele>92</ele>
        <time>2026-05-20T16:23:11Z</time>
      </trkpt>
      <trkpt lat="47.53769" lon="1.40107">
        <ele>92</ele>
        <time>2026-05-20T16:23:18Z</time>
      </trkpt>
      <trkpt lat="47.53751" lon="1.40078">
        <ele>91</ele>
        <time>2026-05-20T16:23:24Z</time>
      </trkpt>
      <trkpt lat="47.53746" lon="1.40063">
        <ele>91</ele>
        <time>2026-05-20T16:23:27Z</time>
      </trkpt>
      <trkpt lat="47.53721" lon="1.40016">
        <ele>90</ele>
        <time>2026-05-20T16:23:36Z</time>
      </trkpt>
      <trkpt lat="47.53709" lon="1.39969">
        <ele>90</ele>
        <time>2026-05-20T16:23:44Z</time>
      </trkpt>
      <trkpt lat="47.53677" lon="1.399">
        <ele>90</ele>
        <time>2026-05-20T16:23:57Z</time>
      </trkpt>
      <trkpt lat="47.53661" lon="1.39854">
        <ele>92</ele>
        <time>2026-05-20T16:24:05Z</time>
      </trkpt>
      <trkpt lat="47.53651" lon="1.3982">
        <ele>92</ele>
        <time>2026-05-20T16:24:11Z</time>
      </trkpt>
      <trkpt lat="47.53651" lon="1.39807">
        <ele>91</ele>
        <time>2026-05-20T16:24:13Z</time>
      </trkpt>
      <trkpt lat="47.53655" lon="1.39801">
        <ele>92</ele>
        <time>2026-05-20T16:24:15Z</time>
      </trkpt>
      <trkpt lat="47.53666" lon="1.39795">
        <ele>92</ele>
        <time>2026-05-20T16:24:17Z</time>
      </trkpt>
      <trkpt lat="47.53685" lon="1.39795">
        <ele>93</ele>
        <time>2026-05-20T16:24:22Z</time>
      </trkpt>
      <trkpt lat="47.53712" lon="1.39786">
        <ele>94</ele>
        <time>2026-05-20T16:24:28Z</time>
      </trkpt>
      <trkpt lat="47.53743" lon="1.39758">
        <ele>95</ele>
        <time>2026-05-20T16:24:37Z</time>
      </trkpt>
      <trkpt lat="47.53777" lon="1.39704">
        <ele>95</ele>
        <time>2026-05-20T16:24:48Z</time>
      </trkpt>
      <trkpt lat="47.5379" lon="1.39674">
        <ele>95</ele>
        <time>2026-05-20T16:24:54Z</time>
      </trkpt>
      <trkpt lat="47.53798" lon="1.39621">
        <ele>95</ele>
        <time>2026-05-20T16:25:03Z</time>
      </trkpt>
      <trkpt lat="47.53805" lon="1.39606">
        <ele>95</ele>
        <time>2026-05-20T16:25:05Z</time>
      </trkpt>
      <trkpt lat="47.53845" lon="1.39544">
        <ele>96</ele>
        <time>2026-05-20T16:25:19Z</time>
      </trkpt>
      <trkpt lat="47.53861" lon="1.39511">
        <ele>96</ele>
        <time>2026-05-20T16:25:25Z</time>
      </trkpt>
      <trkpt lat="47.53875" lon="1.39488">
        <ele>96</ele>
        <time>2026-05-20T16:25:30Z</time>
      </trkpt>
      <trkpt lat="47.53874" lon="1.39474">
        <ele>96</ele>
        <time>2026-05-20T16:25:33Z</time>
      </trkpt>
      <trkpt lat="47.53878" lon="1.39461">
        <ele>95</ele>
        <time>2026-05-20T16:25:35Z</time>
      </trkpt>
      <trkpt lat="47.53907" lon="1.39409">
        <ele>96</ele>
        <time>2026-05-20T16:25:45Z</time>
      </trkpt>
      <trkpt lat="47.53908" lon="1.39403">
        <ele>96</ele>
        <time>2026-05-20T16:25:46Z</time>
      </trkpt>
      <trkpt lat="47.53906" lon="1.39399">
        <ele>96</ele>
        <time>2026-05-20T16:25:47Z</time>
      </trkpt>
      <trkpt lat="47.5391" lon="1.39393">
        <ele>96</ele>
        <time>2026-05-20T16:25:48Z</time>
      </trkpt>
      <trkpt lat="47.53913" lon="1.39365">
        <ele>96</ele>
        <time>2026-05-20T16:25:53Z</time>
      </trkpt>
      <trkpt lat="47.5391" lon="1.39322">
        <ele>95</ele>
        <time>2026-05-20T16:26:00Z</time>
      </trkpt>
      <trkpt lat="47.53923" lon="1.39279">
        <ele>98</ele>
        <time>2026-05-20T16:26:07Z</time>
      </trkpt>
      <trkpt lat="47.53929" lon="1.39268">
        <ele>98</ele>
        <time>2026-05-20T16:26:09Z</time>
      </trkpt>
      <trkpt lat="47.53927" lon="1.39249">
        <ele>98</ele>
        <time>2026-05-20T16:26:12Z</time>
      </trkpt>
      <trkpt lat="47.53932" lon="1.39207">
        <ele>100</ele>
        <time>2026-05-20T16:26:19Z</time>
      </trkpt>
      <trkpt lat="47.53944" lon="1.3917">
        <ele>101</ele>
        <time>2026-05-20T16:26:26Z</time>
      </trkpt>
      <trkpt lat="47.53953" lon="1.39153">
        <ele>102</ele>
        <time>2026-05-20T16:26:29Z</time>
      </trkpt>
      <trkpt lat="47.53957" lon="1.39137">
        <ele>102</ele>
        <time>2026-05-20T16:26:32Z</time>
      </trkpt>
      <trkpt lat="47.53925" lon="1.39179">
        <ele>101</ele>
        <time>2026-05-20T16:26:42Z</time>
      </trkpt>
      <trkpt lat="47.53913" lon="1.39199">
        <ele>100</ele>
        <time>2026-05-20T16:26:46Z</time>
      </trkpt>
      <trkpt lat="47.53904" lon="1.39208">
        <ele>98</ele>
        <time>2026-05-20T16:26:48Z</time>
      </trkpt>
      <trkpt lat="47.53878" lon="1.39216">
        <ele>96</ele>
        <time>2026-05-20T16:26:55Z</time>
      </trkpt>
      <trkpt lat="47.53866" lon="1.39225">
        <ele>94</ele>
        <time>2026-05-20T16:26:58Z</time>
      </trkpt>
      <trkpt lat="47.53849" lon="1.39209">
        <ele>93</ele>
        <time>2026-05-20T16:27:03Z</time>
      </trkpt>
      <trkpt lat="47.53832" lon="1.3919">
        <ele>93</ele>
        <time>2026-05-20T16:27:08Z</time>
      </trkpt>
      <trkpt lat="47.53824" lon="1.39171">
        <ele>93</ele>
        <time>2026-05-20T16:27:11Z</time>
      </trkpt>
      <trkpt lat="47.5381" lon="1.39175">
        <ele>91</ele>
        <time>2026-05-20T16:27:14Z</time>
      </trkpt>
      <trkpt lat="47.53786" lon="1.39188">
        <ele>89</ele>
        <time>2026-05-20T16:27:20Z</time>
      </trkpt>
      <trkpt lat="47.53768" lon="1.39193">
        <ele>87</ele>
        <time>2026-05-20T16:27:25Z</time>
      </trkpt>
      <trkpt lat="47.53729" lon="1.39195">
        <ele>85</ele>
        <time>2026-05-20T16:27:34Z</time>
      </trkpt>
      <trkpt lat="47.53681" lon="1.39195">
        <ele>83</ele>
        <time>2026-05-20T16:27:45Z</time>
      </trkpt>
      <trkpt lat="47.53626" lon="1.39189">
        <ele>82</ele>
        <time>2026-05-20T16:27:58Z</time>
      </trkpt>
      <trkpt lat="47.53574" lon="1.39173">
        <ele>81</ele>
        <time>2026-05-20T16:28:10Z</time>
      </trkpt>
      <trkpt lat="47.53554" lon="1.39164">
        <ele>81</ele>
        <time>2026-05-20T16:28:15Z</time>
      </trkpt>
      <trkpt lat="47.5353" lon="1.39158">
        <ele>80</ele>
        <time>2026-05-20T16:28:21Z</time>
      </trkpt>
      <trkpt lat="47.53516" lon="1.39161">
        <ele>80</ele>
        <time>2026-05-20T16:28:24Z</time>
      </trkpt>
      <trkpt lat="47.53455" lon="1.39181">
        <ele>78</ele>
        <time>2026-05-20T16:28:39Z</time>
      </trkpt>
      <trkpt lat="47.53411" lon="1.39198">
        <ele>76</ele>
        <time>2026-05-20T16:28:49Z</time>
      </trkpt>
      <trkpt lat="47.53369" lon="1.39217">
        <ele>75</ele>
        <time>2026-05-20T16:29:00Z</time>
      </trkpt>
      <trkpt lat="47.53365" lon="1.39204">
        <ele>75</ele>
        <time>2026-05-20T16:29:02Z</time>
      </trkpt>
      <trkpt lat="47.53351" lon="1.39133">
        <ele>76</ele>
        <time>2026-05-20T16:29:13Z</time>
      </trkpt>
      <trkpt lat="47.53336" lon="1.39071">
        <ele>76</ele>
        <time>2026-05-20T16:29:24Z</time>
      </trkpt>
      <trkpt lat="47.53311" lon="1.39013">
        <ele>77</ele>
        <time>2026-05-20T16:29:35Z</time>
      </trkpt>
      <trkpt lat="47.53288" lon="1.38975">
        <ele>77</ele>
        <time>2026-05-20T16:29:43Z</time>
      </trkpt>
      <trkpt lat="47.53249" lon="1.38917">
        <ele>77</ele>
        <time>2026-05-20T16:29:56Z</time>
      </trkpt>
      <trkpt lat="47.53198" lon="1.38854">
        <ele>76</ele>
        <time>2026-05-20T16:30:11Z</time>
      </trkpt>
      <trkpt lat="47.53155" lon="1.38807">
        <ele>75</ele>
        <time>2026-05-20T16:30:24Z</time>
      </trkpt>
      <trkpt lat="47.53081" lon="1.38756">
        <ele>72</ele>
        <time>2026-05-20T16:30:43Z</time>
      </trkpt>
      <trkpt lat="47.53064" lon="1.38742">
        <ele>72</ele>
        <time>2026-05-20T16:30:47Z</time>
      </trkpt>
      <trkpt lat="47.53002" lon="1.38679">
        <ele>74</ele>
        <time>2026-05-20T16:31:05Z</time>
      </trkpt>
      <trkpt lat="47.5297" lon="1.38642">
        <ele>74</ele>
        <time>2026-05-20T16:31:14Z</time>
      </trkpt>
      <trkpt lat="47.52966" lon="1.38631">
        <ele>74</ele>
        <time>2026-05-20T16:31:16Z</time>
      </trkpt>
      <trkpt lat="47.52967" lon="1.38621">
        <ele>75</ele>
        <time>2026-05-20T16:31:18Z</time>
      </trkpt>
      <trkpt lat="47.52993" lon="1.38586">
        <ele>76</ele>
        <time>2026-05-20T16:31:26Z</time>
      </trkpt>
      <trkpt lat="47.52999" lon="1.38568">
        <ele>76</ele>
        <time>2026-05-20T16:31:29Z</time>
      </trkpt>
      <trkpt lat="47.53" lon="1.38556">
        <ele>76</ele>
        <time>2026-05-20T16:31:31Z</time>
      </trkpt>
      <trkpt lat="47.52989" lon="1.38537">
        <ele>76</ele>
        <time>2026-05-20T16:31:35Z</time>
      </trkpt>
      <trkpt lat="47.52965" lon="1.38508">
        <ele>77</ele>
        <time>2026-05-20T16:31:42Z</time>
      </trkpt>
      <trkpt lat="47.52929" lon="1.38455">
        <ele>77</ele>
        <time>2026-05-20T16:31:54Z</time>
      </trkpt>
      <trkpt lat="47.52897" lon="1.38413">
        <ele>78</ele>
        <time>2026-05-20T16:32:04Z</time>
      </trkpt>
      <trkpt lat="47.52898" lon="1.3841">
        <ele>78</ele>
        <time>2026-05-20T16:32:05Z</time>
      </trkpt>
      <trkpt lat="47.52882" lon="1.38387">
        <ele>78</ele>
        <time>2026-05-20T16:32:10Z</time>
      </trkpt>
      <trkpt lat="47.52907" lon="1.38351">
        <ele>78</ele>
        <time>2026-05-20T16:32:18Z</time>
      </trkpt>
      <trkpt lat="47.5291" lon="1.38355">
        <ele>78</ele>
        <time>2026-05-20T16:32:19Z</time>
      </trkpt>
      <trkpt lat="47.52945" lon="1.38301">
        <ele>79</ele>
        <time>2026-05-20T16:32:31Z</time>
      </trkpt>
      <trkpt lat="47.52961" lon="1.38278">
        <ele>80</ele>
        <time>2026-05-20T16:32:36Z</time>
      </trkpt>
      <trkpt lat="47.5297" lon="1.38268">
        <ele>80</ele>
        <time>2026-05-20T16:32:39Z</time>
      </trkpt>
      <trkpt lat="47.52984" lon="1.38258">
        <ele>81</ele>
        <time>2026-05-20T16:32:42Z</time>
      </trkpt>
      <trkpt lat="47.53058" lon="1.38223">
        <ele>81</ele>
        <time>2026-05-20T16:33:00Z</time>
      </trkpt>
      <trkpt lat="47.53096" lon="1.38209">
        <ele>80</ele>
        <time>2026-05-20T16:33:10Z</time>
      </trkpt>
      <trkpt lat="47.53133" lon="1.38201">
        <ele>80</ele>
        <time>2026-05-20T16:33:18Z</time>
      </trkpt>
      <trkpt lat="47.53171" lon="1.38181">
        <ele>81</ele>
        <time>2026-05-20T16:33:28Z</time>
      </trkpt>
      <trkpt lat="47.53212" lon="1.3815">
        <ele>82</ele>
        <time>2026-05-20T16:33:38Z</time>
      </trkpt>
      <trkpt lat="47.53237" lon="1.38128">
        <ele>82</ele>
        <time>2026-05-20T16:33:45Z</time>
      </trkpt>
      <trkpt lat="47.5329" lon="1.38091">
        <ele>84</ele>
        <time>2026-05-20T16:33:59Z</time>
      </trkpt>
      <trkpt lat="47.53379" lon="1.38015">
        <ele>86</ele>
        <time>2026-05-20T16:34:23Z</time>
      </trkpt>
      <trkpt lat="47.53533" lon="1.3786">
        <ele>93</ele>
        <time>2026-05-20T16:35:06Z</time>
      </trkpt>
      <trkpt lat="47.53615" lon="1.37784">
        <ele>98</ele>
        <time>2026-05-20T16:35:29Z</time>
      </trkpt>
      <trkpt lat="47.5366" lon="1.37874">
        <ele>95</ele>
        <time>2026-05-20T16:35:47Z</time>
      </trkpt>
      <trkpt lat="47.53694" lon="1.37932">
        <ele>91</ele>
        <time>2026-05-20T16:35:59Z</time>
      </trkpt>
      <trkpt lat="47.53718" lon="1.37964">
        <ele>88</ele>
        <time>2026-05-20T16:36:06Z</time>
      </trkpt>
      <trkpt lat="47.53769" lon="1.3802">
        <ele>89</ele>
        <time>2026-05-20T16:36:21Z</time>
      </trkpt>
      <trkpt lat="47.53799" lon="1.38029">
        <ele>92</ele>
        <time>2026-05-20T16:36:28Z</time>
      </trkpt>
      <trkpt lat="47.53874" lon="1.38209">
        <ele>102</ele>
        <time>2026-05-20T16:37:02Z</time>
      </trkpt>
      <trkpt lat="47.53885" lon="1.38228">
        <ele>103</ele>
        <time>2026-05-20T16:37:06Z</time>
      </trkpt>
      <trkpt lat="47.53904" lon="1.38217">
        <ele>103</ele>
        <time>2026-05-20T16:37:10Z</time>
      </trkpt>
      <trkpt lat="47.53958" lon="1.38138">
        <ele>96</ele>
        <time>2026-05-20T16:37:35Z</time>
      </trkpt>
      <trkpt lat="47.53972" lon="1.38147">
        <ele>96.3</ele>
      </trkpt>
      <trkpt lat="47.53998" lon="1.38142">
        <ele>96</ele>
        <time>2026-05-20T16:37:48Z</time>
      </trkpt>
      <trkpt lat="47.54025" lon="1.3816">
        <ele>96.9</ele>
      </trkpt>
      <trkpt lat="47.54002" lon="1.38184">
        <ele>96</ele>
        <time>2026-05-20T16:37:56Z</time>
      </trkpt>
      <trkpt lat="47.54028" lon="1.382">
        <ele>96.2</ele>
      </trkpt>
      <trkpt lat="47.54046" lon="1.38183">
        <ele>96.8</ele>
      </trkpt>
      <trkpt lat="47.54058" lon="1.38175">
        <ele>96.9</ele>
      </trkpt>
      <trkpt lat="47.54071" lon="1.38185">
        <ele>96.4</ele>
      </trkpt>
      <trkpt lat="47.54092" lon="1.38167">
        <ele>96</ele>
      </trkpt>
      <trkpt lat="47.54088" lon="1.38149">
        <ele>96</ele>
      </trkpt>
      <trkpt lat="47.54096" lon="1.38139">
        <ele>96</ele>
      </trkpt>
      <trkpt lat="47.54111" lon="1.38146">
        <ele>96</ele>
      </trkpt>
      <trkpt lat="47.54131" lon="1.38147">
        <ele>96</ele>
        <time>2026-05-20T16:38:06Z</time>
      </trkpt>
      <trkpt lat="47.54131" lon="1.38133">
        <ele>96</ele>
      </trkpt>
      <trkpt lat="47.54126" lon="1.38127">
        <ele>96</ele>
      </trkpt>
      <trkpt lat="47.54111" lon="1.3812">
        <ele>96</ele>
      </trkpt>
      <trkpt lat="47.54123" lon="1.38113">
        <ele>96</ele>
      </trkpt>
      <trkpt lat="47.54143" lon="1.38118">
        <ele>96</ele>
        <time>2026-05-20T16:38:16Z</time>
      </trkpt>
      <trkpt lat="47.54145" lon="1.38138">
        <ele>96</ele>
      </trkpt>
      <trkpt lat="47.54168" lon="1.3814">
        <ele>96</ele>
      </trkpt>
      <trkpt lat="47.54187" lon="1.38146">
        <ele>96</ele>
        <time>2026-05-20T16:38:31Z</time>
      </trkpt>
      <trkpt lat="47.54211" lon="1.38146">
        <ele>95.9</ele>
      </trkpt>
      <trkpt lat="47.54238" lon="1.38127">
        <ele>95.4</ele>
      </trkpt>
      <trkpt lat="47.54254" lon="1.38087">
        <ele>94.9</ele>
        <time>2026-05-20T16:38:44Z</time>
      </trkpt>
      <trkpt lat="47.54212" lon="1.38095">
        <ele>96</ele>
      </trkpt>
      <trkpt lat="47.54112" lon="1.38081">
        <ele>96</ele>
      </trkpt>
      <trkpt lat="47.54047" lon="1.38118">
        <ele>96.8</ele>
      </trkpt>
      <trkpt lat="47.54011" lon="1.38123">
        <ele>96.2</ele>
      </trkpt>
      <trkpt lat="47.53987" lon="1.38108">
        <ele>96</ele>
      </trkpt>
      <trkpt lat="47.54012" lon="1.38055">
        <ele>95.4</ele>
      </trkpt>
      <trkpt lat="47.53986" lon="1.38042">
        <ele>95.5</ele>
      </trkpt>
      <trkpt lat="47.53968" lon="1.38047">
        <ele>95.7</ele>
      </trkpt>
      <trkpt lat="47.53962" lon="1.38017">
        <ele>95.5</ele>
      </trkpt>
      <trkpt lat="47.53944" lon="1.38005">
        <ele>95.2</ele>
      </trkpt>
      <trkpt lat="47.53935" lon="1.37983">
        <ele>95.8</ele>
      </trkpt>
      <trkpt lat="47.53954" lon="1.37963">
        <ele>96.3</ele>
      </trkpt>
      <trkpt lat="47.53952" lon="1.37947">
        <ele>96.9</ele>
      </trkpt>
      <trkpt lat="47.53947" lon="1.37921">
        <ele>96.1</ele>
      </trkpt>
      <trkpt lat="47.53932" lon="1.37895">
        <ele>96</ele>
      </trkpt>
      <trkpt lat="47.53909" lon="1.37896">
        <ele>95.7</ele>
      </trkpt>
      <trkpt lat="47.53894" lon="1.37884">
        <ele>95.2</ele>
      </trkpt>
      <trkpt lat="47.53893" lon="1.37847">
        <ele>94.6</ele>
      </trkpt>
      <trkpt lat="47.53902" lon="1.3781">
        <ele>94.5</ele>
      </trkpt>
      <trkpt lat="47.53907" lon="1.37789">
        <ele>94</ele>
      </trkpt>
      <trkpt lat="47.53914" lon="1.37766">
        <ele>93.5</ele>
      </trkpt>
      <trkpt lat="47.53912" lon="1.37742">
        <ele>92.2</ele>
      </trkpt>
      <trkpt lat="47.53927" lon="1.37738">
        <ele>92.3</ele>
      </trkpt>
      <trkpt lat="47.53922" lon="1.37703">
        <ele>89.8</ele>
      </trkpt>
      <trkpt lat="47.53925" lon="1.37648">
        <ele>85.3</ele>
      </trkpt>
      <trkpt lat="47.53908" lon="1.37623">
        <ele>85.8</ele>
      </trkpt>
      <trkpt lat="47.53898" lon="1.37568">
        <ele>90.8</ele>
      </trkpt>
      <trkpt lat="47.5392" lon="1.37547">
        <ele>91.6</ele>
      </trkpt>
      <trkpt lat="47.54068" lon="1.37534">
        <ele>90</ele>
      </trkpt>
      <trkpt lat="47.54059" lon="1.37562">
        <ele>90</ele>
      </trkpt>
      <trkpt lat="47.54056" lon="1.37593">
        <ele>90</ele>
      </trkpt>
      <trkpt lat="47.54064" lon="1.37622">
        <ele>90.3</ele>
      </trkpt>
      <trkpt lat="47.54051" lon="1.37655">
        <ele>89.8</ele>
      </trkpt>
      <trkpt lat="47.54049" lon="1.37685">
        <ele>89.3</ele>
      </trkpt>
      <trkpt lat="47.54085" lon="1.37701">
        <ele>90</ele>
      </trkpt>
      <trkpt lat="47.54123" lon="1.37703">
        <ele>91.1</ele>
      </trkpt>
      <trkpt lat="47.54136" lon="1.37725">
        <ele>90.9</ele>
      </trkpt>
      <trkpt lat="47.54124" lon="1.37736">
        <ele>90.5</ele>
      </trkpt>
      <trkpt lat="47.5412" lon="1.37743">
        <ele>90.3</ele>
      </trkpt>
      <trkpt lat="47.54143" lon="1.37779">
        <ele>90.1</ele>
      </trkpt>
      <trkpt lat="47.54135" lon="1.37787">
        <ele>89.7</ele>
      </trkpt>
      <trkpt lat="47.54123" lon="1.37793">
        <ele>89.8</ele>
      </trkpt>
      <trkpt lat="47.54116" lon="1.37814">
        <ele>89.8</ele>
      </trkpt>
      <trkpt lat="47.54131" lon="1.37828">
        <ele>89.3</ele>
      </trkpt>
      <trkpt lat="47.54143" lon="1.37836">
        <ele>89.1</ele>
      </trkpt>
      <trkpt lat="47.54176" lon="1.37849">
        <ele>89.1</ele>
      </trkpt>
      <trkpt lat="47.54209" lon="1.37862">
        <ele>89</ele>
      </trkpt>
      <trkpt lat="47.54214" lon="1.37876">
        <ele>89</ele>
      </trkpt>
      <trkpt lat="47.54207" lon="1.37889">
        <ele>89</ele>
      </trkpt>
      <trkpt lat="47.54205" lon="1.37905">
        <ele>89.6</ele>
      </trkpt>
      <trkpt lat="47.54191" lon="1.37913">
        <ele>89.9</ele>
      </trkpt>
      <trkpt lat="47.5418" lon="1.37927">
        <ele>90.4</ele>
      </trkpt>
      <trkpt lat="47.54171" lon="1.37925">
        <ele>90.3</ele>
      </trkpt>
      <trkpt lat="47.54172" lon="1.3791">
        <ele>90</ele>
      </trkpt>
      <trkpt lat="47.54189" lon="1.37901">
        <ele>89.5</ele>
      </trkpt>
      <trkpt lat="47.54194" lon="1.3789">
        <ele>89.1</ele>
      </trkpt>
      <trkpt lat="47.54174" lon="1.37889">
        <ele>89.7</ele>
      </trkpt>
      <trkpt lat="47.54169" lon="1.37872">
        <ele>89.4</ele>
      </trkpt>
      <trkpt lat="47.54126" lon="1.37869">
        <ele>90.6</ele>
      </trkpt>
      <trkpt lat="47.54121" lon="1.37842">
        <ele>90</ele>
      </trkpt>
      <trkpt lat="47.54099" lon="1.37826">
        <ele>90.3</ele>
      </trkpt>
      <trkpt lat="47.54083" lon="1.37789">
        <ele>90</ele>
      </trkpt>
      <trkpt lat="47.54072" lon="1.37801">
        <ele>90.4</ele>
      </trkpt>
      <trkpt lat="47.54102" lon="1.37858">
        <ele>91.2</ele>
      </trkpt>
      <trkpt lat="47.5412" lon="1.37884">
        <ele>91.3</ele>
      </trkpt>
      <trkpt lat="47.54153" lon="1.37933">
        <ele>91.3</ele>
      </trkpt>
      <trkpt lat="47.54189" lon="1.37968">
        <ele>92</ele>
      </trkpt>
      <trkpt lat="47.54219" lon="1.37986">
        <ele>92.1</ele>
      </trkpt>
      <trkpt lat="47.54249" lon="1.37997">
        <ele>92.9</ele>
      </trkpt>
      <trkpt lat="47.54302" lon="1.38024">
        <ele>92.1</ele>
      </trkpt>
      <trkpt lat="47.54345" lon="1.38063">
        <ele>91.6</ele>
        <time>2026-05-20T16:39:00Z</time>
      </trkpt>
      <trkpt lat="47.54416" lon="1.38271">
        <ele>106</ele>
        <time>2026-05-20T16:39:36Z</time>
      </trkpt>
      <trkpt lat="47.54462" lon="1.38376">
        <ele>108</ele>
        <time>2026-05-20T16:39:56Z</time>
      </trkpt>
      <trkpt lat="47.54488" lon="1.38397">
        <ele>93.6</ele>
      </trkpt>
      <trkpt lat="47.54553" lon="1.38381">
        <ele>92.7</ele>
        <time>2026-05-20T16:40:16Z</time>
      </trkpt>
      <trkpt lat="47.54959" lon="1.38302">
        <ele>111</ele>
        <time>2026-05-20T16:41:53Z</time>
      </trkpt>
      <trkpt lat="47.54932" lon="1.37816">
        <ele>113</ele>
        <time>2026-05-20T16:43:09Z</time>
      </trkpt>
      <trkpt lat="47.54896" lon="1.37454">
        <ele>107</ele>
        <time>2026-05-20T16:44:07Z</time>
      </trkpt>
      <trkpt lat="47.54479" lon="1.3749">
        <ele>102</ele>
        <time>2026-05-20T16:45:45Z</time>
      </trkpt>
      <trkpt lat="47.54419" lon="1.37506">
        <ele>103</ele>
        <time>2026-05-20T16:45:59Z</time>
      </trkpt>
      <trkpt lat="47.54354" lon="1.37488">
        <ele>104</ele>
        <time>2026-05-20T16:46:14Z</time>
      </trkpt>
      <trkpt lat="47.54352" lon="1.37397">
        <ele>95.3</ele>
      </trkpt>
      <trkpt lat="47.54314" lon="1.37399">
        <ele>96</ele>
      </trkpt>
      <trkpt lat="47.54284" lon="1.37417">
        <ele>96</ele>
      </trkpt>
      <trkpt lat="47.54233" lon="1.37446">
        <ele>95</ele>
      </trkpt>
      <trkpt lat="47.54182" lon="1.37446">
        <ele>94.5</ele>
      </trkpt>
      <trkpt lat="47.54156" lon="1.37438">
        <ele>93.8</ele>
      </trkpt>
      <trkpt lat="47.54121" lon="1.37449">
        <ele>92.3</ele>
      </trkpt>
      <trkpt lat="47.54092" lon="1.37457">
        <ele>91.3</ele>
      </trkpt>
      <trkpt lat="47.54077" lon="1.37453">
        <ele>90.8</ele>
      </trkpt>
      <trkpt lat="47.54062" lon="1.37463">
        <ele>90.2</ele>
      </trkpt>
      <trkpt lat="47.54033" lon="1.37466">
        <ele>89.8</ele>
      </trkpt>
      <trkpt lat="47.53998" lon="1.37427">
        <ele>89.1</ele>
      </trkpt>
      <trkpt lat="47.53903" lon="1.3746">
        <ele>93.5</ele>
      </trkpt>
      <trkpt lat="47.53883" lon="1.37465">
        <ele>94.1</ele>
      </trkpt>
      <trkpt lat="47.53862" lon="1.37461">
        <ele>94.4</ele>
      </trkpt>
      <trkpt lat="47.53845" lon="1.37455">
        <ele>94.6</ele>
      </trkpt>
      <trkpt lat="47.53817" lon="1.37459">
        <ele>94.5</ele>
      </trkpt>
      <trkpt lat="47.53801" lon="1.37431">
        <ele>94.9</ele>
      </trkpt>
      <trkpt lat="47.53783" lon="1.37405">
        <ele>95.3</ele>
      </trkpt>
      <trkpt lat="47.53765" lon="1.37347">
        <ele>95.8</ele>
      </trkpt>
      <trkpt lat="47.53755" lon="1.37348">
        <ele>95.6</ele>
      </trkpt>
      <trkpt lat="47.53741" lon="1.3735">
        <ele>95.1</ele>
      </trkpt>
      <trkpt lat="47.53734" lon="1.37326">
        <ele>94.9</ele>
      </trkpt>
      <trkpt lat="47.53726" lon="1.3733">
        <ele>94.3</ele>
      </trkpt>
      <trkpt lat="47.53724" lon="1.37359">
        <ele>94.9</ele>
      </trkpt>
      <trkpt lat="47.53711" lon="1.37344">
        <ele>94.4</ele>
      </trkpt>
      <trkpt lat="47.53707" lon="1.37321">
        <ele>94</ele>
      </trkpt>
      <trkpt lat="47.53702" lon="1.37305">
        <ele>94</ele>
      </trkpt>
      <trkpt lat="47.53705" lon="1.37295">
        <ele>94.5</ele>
      </trkpt>
      <trkpt lat="47.53716" lon="1.37288">
        <ele>95.1</ele>
      </trkpt>
      <trkpt lat="47.53741" lon="1.37308">
        <ele>95.3</ele>
      </trkpt>
      <trkpt lat="47.53753" lon="1.3729">
        <ele>96.6</ele>
      </trkpt>
      <trkpt lat="47.53739" lon="1.37281">
        <ele>96.5</ele>
      </trkpt>
      <trkpt lat="47.53729" lon="1.37269">
        <ele>96.5</ele>
      </trkpt>
      <trkpt lat="47.53748" lon="1.37264">
        <ele>97</ele>
      </trkpt>
      <trkpt lat="47.53747" lon="1.37243">
        <ele>97</ele>
      </trkpt>
      <trkpt lat="47.53733" lon="1.37234">
        <ele>97</ele>
      </trkpt>
      <trkpt lat="47.53728" lon="1.37212">
        <ele>97.4</ele>
      </trkpt>
      <trkpt lat="47.53717" lon="1.37209">
        <ele>97.3</ele>
      </trkpt>
      <trkpt lat="47.53708" lon="1.37223">
        <ele>97</ele>
      </trkpt>
      <trkpt lat="47.53695" lon="1.37194">
        <ele>96.1</ele>
      </trkpt>
      <trkpt lat="47.53689" lon="1.37193">
        <ele>96.3</ele>
      </trkpt>
      <trkpt lat="47.53689" lon="1.37213">
        <ele>96.6</ele>
      </trkpt>
      <trkpt lat="47.53675" lon="1.37201">
        <ele>96.6</ele>
      </trkpt>
      <trkpt lat="47.53677" lon="1.37225">
        <ele>96.3</ele>
      </trkpt>
      <trkpt lat="47.53696" lon="1.37243">
        <ele>95.6</ele>
      </trkpt>
      <trkpt lat="47.53703" lon="1.37243">
        <ele>95.9</ele>
      </trkpt>
      <trkpt lat="47.53713" lon="1.37233">
        <ele>96.7</ele>
      </trkpt>
      <trkpt lat="47.53718" lon="1.37259">
        <ele>96.4</ele>
      </trkpt>
      <trkpt lat="47.5371" lon="1.37274">
        <ele>95.6</ele>
      </trkpt>
      <trkpt lat="47.53702" lon="1.37274">
        <ele>95.3</ele>
      </trkpt>
      <trkpt lat="47.53693" lon="1.3729">
        <ele>94.5</ele>
      </trkpt>
      <trkpt lat="47.53692" lon="1.37303">
        <ele>94</ele>
      </trkpt>
      <trkpt lat="47.53685" lon="1.37313">
        <ele>93.7</ele>
      </trkpt>
      <trkpt lat="47.53674" lon="1.37313">
        <ele>93.2</ele>
      </trkpt>
      <trkpt lat="47.53662" lon="1.37299">
        <ele>93.5</ele>
      </trkpt>
      <trkpt lat="47.53678" lon="1.37294">
        <ele>94.1</ele>
      </trkpt>
      <trkpt lat="47.53662" lon="1.37264">
        <ele>95.4</ele>
      </trkpt>
      <trkpt lat="47.53657" lon="1.37276">
        <ele>95.1</ele>
      </trkpt>
      <trkpt lat="47.53648" lon="1.37279">
        <ele>94.9</ele>
      </trkpt>
      <trkpt lat="47.53638" lon="1.37271">
        <ele>95</ele>
      </trkpt>
      <trkpt lat="47.53621" lon="1.37301">
        <ele>93.9</ele>
      </trkpt>
      <trkpt lat="47.53637" lon="1.37307">
        <ele>93.1</ele>
      </trkpt>
      <trkpt lat="47.53654" lon="1.37305">
        <ele>93</ele>
      </trkpt>
      <trkpt lat="47.53655" lon="1.37329">
        <ele>93.3</ele>
      </trkpt>
      <trkpt lat="47.53675" lon="1.37368">
        <ele>94.4</ele>
      </trkpt>
      <trkpt lat="47.53671" lon="1.37374">
        <ele>94.5</ele>
      </trkpt>
      <trkpt lat="47.53659" lon="1.37379">
        <ele>94.5</ele>
      </trkpt>
      <trkpt lat="47.53655" lon="1.37391">
        <ele>94.5</ele>
      </trkpt>
      <trkpt lat="47.53659" lon="1.3742">
        <ele>94.5</ele>
      </trkpt>
      <trkpt lat="47.53641" lon="1.37433">
        <ele>93.7</ele>
      </trkpt>
      <trkpt lat="47.53618" lon="1.3744">
        <ele>94</ele>
      </trkpt>
      <trkpt lat="47.53605" lon="1.37445">
        <ele>101</ele>
        <time>2026-05-20T16:52:06Z</time>
      </trkpt>
      <trkpt lat="47.53586" lon="1.37486">
        <ele>98</ele>
        <time>2026-05-20T16:52:14Z</time>
      </trkpt>
      <trkpt lat="47.53544" lon="1.37398">
        <ele>100</ele>
        <time>2026-05-20T16:52:31Z</time>
      </trkpt>
      <trkpt lat="47.53444" lon="1.37394">
        <ele>97</ele>
        <time>2026-05-20T16:52:54Z</time>
      </trkpt>
      <trkpt lat="47.53378" lon="1.37343">
        <ele>98</ele>
        <time>2026-05-20T16:53:11Z</time>
      </trkpt>
      <trkpt lat="47.53361" lon="1.37335">
        <ele>98</ele>
        <time>2026-05-20T16:53:15Z</time>
      </trkpt>
      <trkpt lat="47.53301" lon="1.37332">
        <ele>99</ele>
        <time>2026-05-20T16:53:29Z</time>
      </trkpt>
      <trkpt lat="47.53256" lon="1.37302">
        <ele>101</ele>
        <time>2026-05-20T16:53:41Z</time>
      </trkpt>
      <trkpt lat="47.53226" lon="1.37289">
        <ele>101</ele>
        <time>2026-05-20T16:53:48Z</time>
      </trkpt>
      <trkpt lat="47.53154" lon="1.3724">
        <ele>101</ele>
        <time>2026-05-20T16:54:07Z</time>
      </trkpt>
      <trkpt lat="47.52985" lon="1.37126">
        <ele>103</ele>
        <time>2026-05-20T16:54:50Z</time>
      </trkpt>
      <trkpt lat="47.52931" lon="1.37085">
        <ele>105</ele>
        <time>2026-05-20T16:55:04Z</time>
      </trkpt>
      <trkpt lat="47.52869" lon="1.37044">
        <ele>102</ele>
        <time>2026-05-20T16:55:20Z</time>
      </trkpt>
      <trkpt lat="47.52855" lon="1.37033">
        <ele>101</ele>
        <time>2026-05-20T16:55:24Z</time>
      </trkpt>
      <trkpt lat="47.52848" lon="1.37025">
        <ele>101</ele>
        <time>2026-05-20T16:55:26Z</time>
      </trkpt>
      <trkpt lat="47.528" lon="1.36898">
        <ele>98</ele>
        <time>2026-05-20T16:55:49Z</time>
      </trkpt>
      <trkpt lat="47.52753" lon="1.3681">
        <ele>95</ele>
        <time>2026-05-20T16:56:07Z</time>
      </trkpt>
      <trkpt lat="47.5273" lon="1.36778">
        <ele>95</ele>
        <time>2026-05-20T16:56:14Z</time>
      </trkpt>
      <trkpt lat="47.52723" lon="1.36774">
        <ele>95</ele>
        <time>2026-05-20T16:56:16Z</time>
      </trkpt>
      <trkpt lat="47.52705" lon="1.36758">
        <ele>88.9</ele>
        <time>2026-05-20T16:56:22Z</time>
      </trkpt>
      <trkpt lat="47.52646" lon="1.36669">
        <ele>91.6</ele>
      </trkpt>
      <trkpt lat="47.52603" lon="1.36674">
        <ele>91.7</ele>
      </trkpt>
      <trkpt lat="47.52565" lon="1.36704">
        <ele>89.7</ele>
      </trkpt>
      <trkpt lat="47.52534" lon="1.36744">
        <ele>87.4</ele>
      </trkpt>
      <trkpt lat="47.52442" lon="1.36779">
        <ele>85</ele>
        <time>2026-05-20T16:57:24Z</time>
      </trkpt>
      <trkpt lat="47.5241" lon="1.36729">
        <ele>86.7</ele>
        <time>2026-05-20T16:57:35Z</time>
      </trkpt>
      <trkpt lat="47.52363" lon="1.36732">
        <ele>86.7</ele>
        <time>2026-05-20T16:57:44Z</time>
      </trkpt>
      <trkpt lat="47.52311" lon="1.36743">
        <ele>85.2</ele>
        <time>2026-05-20T16:57:56Z</time>
      </trkpt>
      <trkpt lat="47.52286" lon="1.36747">
        <ele>92</ele>
        <time>2026-05-20T16:58:03Z</time>
      </trkpt>
      <trkpt lat="47.52268" lon="1.36738">
        <ele>92</ele>
        <time>2026-05-20T16:58:08Z</time>
      </trkpt>
      <trkpt lat="47.52233" lon="1.36702">
        <ele>92</ele>
        <time>2026-05-20T16:58:17Z</time>
      </trkpt>
      <trkpt lat="47.52221" lon="1.36699">
        <ele>92</ele>
        <time>2026-05-20T16:58:20Z</time>
      </trkpt>
      <trkpt lat="47.52209" lon="1.36699">
        <ele>91</ele>
        <time>2026-05-20T16:58:23Z</time>
      </trkpt>
      <trkpt lat="47.52177" lon="1.36688">
        <ele>91</ele>
        <time>2026-05-20T16:58:31Z</time>
      </trkpt>
      <trkpt lat="47.52156" lon="1.36685">
        <ele>90</ele>
        <time>2026-05-20T16:58:36Z</time>
      </trkpt>
      <trkpt lat="47.52126" lon="1.36671">
        <ele>87</ele>
        <time>2026-05-20T16:58:43Z</time>
      </trkpt>
      <trkpt lat="47.52125" lon="1.36643">
        <ele>89</ele>
        <time>2026-05-20T16:58:47Z</time>
      </trkpt>
      <trkpt lat="47.52182" lon="1.36596">
        <ele>97</ele>
        <time>2026-05-20T16:59:03Z</time>
      </trkpt>
      <trkpt lat="47.52367" lon="1.36504">
        <ele>107</ele>
        <time>2026-05-20T16:59:48Z</time>
      </trkpt>
      <trkpt lat="47.52528" lon="1.36415">
        <ele>109</ele>
        <time>2026-05-20T17:00:28Z</time>
      </trkpt>
      <trkpt lat="47.52697" lon="1.36327">
        <ele>107</ele>
        <time>2026-05-20T17:01:10Z</time>
      </trkpt>
      <trkpt lat="47.52835" lon="1.36263">
        <ele>106</ele>
        <time>2026-05-20T17:01:44Z</time>
      </trkpt>
      <trkpt lat="47.52798" lon="1.36108">
        <ele>113</ele>
        <time>2026-05-20T17:02:10Z</time>
      </trkpt>
      <trkpt lat="47.52631" lon="1.35439">
        <ele>103.1</ele>
        <time>2026-05-20T17:02:35Z</time>
      </trkpt>
      <trkpt lat="47.52587" lon="1.35454">
        <ele>103.9</ele>
      </trkpt>
      <trkpt lat="47.52543" lon="1.35469">
        <ele>104</ele>
      </trkpt>
      <trkpt lat="47.52551" lon="1.35525">
        <ele>104</ele>
      </trkpt>
      <trkpt lat="47.52555" lon="1.35632">
        <ele>103.7</ele>
      </trkpt>
      <trkpt lat="47.52547" lon="1.3571">
        <ele>104</ele>
      </trkpt>
      <trkpt lat="47.52536" lon="1.3578">
        <ele>104</ele>
      </trkpt>
      <trkpt lat="47.52562" lon="1.35991">
        <ele>102.8</ele>
      </trkpt>
      <trkpt lat="47.52358" lon="1.36035">
        <ele>104.9</ele>
      </trkpt>
      <trkpt lat="47.52153" lon="1.36078">
        <ele>101</ele>
        <time>2026-05-20T17:04:58Z</time>
      </trkpt>
      <trkpt lat="47.52158" lon="1.36061">
        <ele>103</ele>
        <time>2026-05-20T17:05:01Z</time>
      </trkpt>
      <trkpt lat="47.52149" lon="1.35975">
        <ele>103</ele>
        <time>2026-05-20T17:05:15Z</time>
      </trkpt>
      <trkpt lat="47.5213" lon="1.35898">
        <ele>101</ele>
        <time>2026-05-20T17:05:28Z</time>
      </trkpt>
      <trkpt lat="47.52126" lon="1.35803">
        <ele>101</ele>
        <time>2026-05-20T17:05:43Z</time>
      </trkpt>
      <trkpt lat="47.5212" lon="1.35714">
        <ele>99</ele>
        <time>2026-05-20T17:05:57Z</time>
      </trkpt>
      <trkpt lat="47.5207" lon="1.35545">
        <ele>93</ele>
        <time>2026-05-20T17:06:26Z</time>
      </trkpt>
      <trkpt lat="47.52172" lon="1.35528">
        <ele>101</ele>
        <time>2026-05-20T17:06:50Z</time>
      </trkpt>
      <trkpt lat="47.52255" lon="1.35506">
        <ele>102</ele>
        <time>2026-05-20T17:07:10Z</time>
      </trkpt>
      <trkpt lat="47.52332" lon="1.35492">
        <ele>108</ele>
        <time>2026-05-20T17:07:28Z</time>
      </trkpt>
      <trkpt lat="47.52375" lon="1.35434">
        <ele>108</ele>
        <time>2026-05-20T17:07:42Z</time>
      </trkpt>
      <trkpt lat="47.52411" lon="1.35372">
        <ele>111</ele>
        <time>2026-05-20T17:07:54Z</time>
      </trkpt>
      <trkpt lat="47.52409" lon="1.35334">
        <ele>109</ele>
        <time>2026-05-20T17:08:00Z</time>
      </trkpt>
      <trkpt lat="47.52396" lon="1.35298">
        <ele>106</ele>
        <time>2026-05-20T17:08:07Z</time>
      </trkpt>
      <trkpt lat="47.52407" lon="1.35259">
        <ele>107</ele>
        <time>2026-05-20T17:08:14Z</time>
      </trkpt>
      <trkpt lat="47.52529" lon="1.3513">
        <ele>111</ele>
        <time>2026-05-20T17:08:49Z</time>
      </trkpt>
      <trkpt lat="47.52543" lon="1.35107">
        <ele>112</ele>
        <time>2026-05-20T17:08:53Z</time>
      </trkpt>
      <trkpt lat="47.52472" lon="1.34838">
        <ele>108</ele>
        <time>2026-05-20T17:09:39Z</time>
      </trkpt>
      <trkpt lat="47.52202" lon="1.34883">
        <ele>101</ele>
        <time>2026-05-20T17:10:42Z</time>
      </trkpt>
      <trkpt lat="47.5203" lon="1.34915">
        <ele>89.1</ele>
        <time>2026-05-20T17:11:08Z</time>
      </trkpt>
      <trkpt lat="47.52018" lon="1.34947">
        <ele>87.6</ele>
      </trkpt>
      <trkpt lat="47.52035" lon="1.35003">
        <ele>88.2</ele>
      </trkpt>
      <trkpt lat="47.52077" lon="1.35052">
        <ele>88.8</ele>
      </trkpt>
      <trkpt lat="47.52088" lon="1.35125">
        <ele>88.1</ele>
      </trkpt>
      <trkpt lat="47.5211" lon="1.35181">
        <ele>89</ele>
      </trkpt>
      <trkpt lat="47.52125" lon="1.35283">
        <ele>90.1</ele>
      </trkpt>
      <trkpt lat="47.52119" lon="1.35317">
        <ele>91.1</ele>
      </trkpt>
      <trkpt lat="47.52118" lon="1.35347">
        <ele>91.9</ele>
      </trkpt>
      <trkpt lat="47.5209" lon="1.35365">
        <ele>91.4</ele>
      </trkpt>
      <trkpt lat="47.52069" lon="1.35418">
        <ele>90.9</ele>
        <time>2026-05-20T17:11:33Z</time>
      </trkpt>
      <trkpt lat="47.52043" lon="1.35352">
        <ele>89.5</ele>
      </trkpt>
      <trkpt lat="47.52101" lon="1.35278">
        <ele>89.6</ele>
      </trkpt>
      <trkpt lat="47.52083" lon="1.35165">
        <ele>88</ele>
      </trkpt>
      <trkpt lat="47.52" lon="1.34972">
        <ele>87</ele>
      </trkpt>
      <trkpt lat="47.51986" lon="1.34914">
        <ele>87.5</ele>
      </trkpt>
      <trkpt lat="47.51998" lon="1.34884">
        <ele>88.1</ele>
      </trkpt>
      <trkpt lat="47.52003" lon="1.34858">
        <ele>89.1</ele>
      </trkpt>
      <trkpt lat="47.52062" lon="1.34852">
        <ele>91.7</ele>
      </trkpt>
      <trkpt lat="47.52119" lon="1.34847">
        <ele>93.8</ele>
      </trkpt>
      <trkpt lat="47.52115" lon="1.34786">
        <ele>95.1</ele>
      </trkpt>
      <trkpt lat="47.52132" lon="1.3477">
        <ele>96</ele>
      </trkpt>
      <trkpt lat="47.52141" lon="1.34742">
        <ele>96.7</ele>
      </trkpt>
      <trkpt lat="47.52164" lon="1.34767">
        <ele>96.6</ele>
      </trkpt>
      <trkpt lat="47.52196" lon="1.34771">
        <ele>98</ele>
      </trkpt>
      <trkpt lat="47.52212" lon="1.34714">
        <ele>97.9</ele>
      </trkpt>
      <trkpt lat="47.52229" lon="1.34673">
        <ele>97.4</ele>
      </trkpt>
      <trkpt lat="47.52185" lon="1.34633">
        <ele>95.5</ele>
        <time>2026-05-20T17:11:56Z</time>
      </trkpt>
      <trkpt lat="47.51996" lon="1.3451">
        <ele>90.6</ele>
      </trkpt>
      <trkpt lat="47.52005" lon="1.34456">
        <ele>92.6</ele>
      </trkpt>
      <trkpt lat="47.51977" lon="1.34402">
        <ele>93</ele>
      </trkpt>
      <trkpt lat="47.51951" lon="1.34394">
        <ele>93.6</ele>
      </trkpt>
      <trkpt lat="47.51934" lon="1.34359">
        <ele>93.6</ele>
      </trkpt>
      <trkpt lat="47.51889" lon="1.3436">
        <ele>93.9</ele>
      </trkpt>
      <trkpt lat="47.51868" lon="1.34334">
        <ele>93</ele>
      </trkpt>
      <trkpt lat="47.51863" lon="1.34287">
        <ele>93</ele>
        <time>2026-05-20T17:12:37Z</time>
      </trkpt>
      <trkpt lat="47.51828" lon="1.34273">
        <ele>91.8</ele>
        <time>2026-05-20T17:13:07Z</time>
      </trkpt>
      <trkpt lat="47.51678" lon="1.34303">
        <ele>83</ele>
        <time>2026-05-20T17:13:26Z</time>
      </trkpt>
      <trkpt lat="47.51669" lon="1.34296">
        <ele>94</ele>
        <time>2026-05-20T17:13:38Z</time>
      </trkpt>
      <trkpt lat="47.51594" lon="1.34131">
        <ele>97</ele>
        <time>2026-05-20T17:14:10Z</time>
      </trkpt>
      <trkpt lat="47.51601" lon="1.33916">
        <ele>97</ele>
        <time>2026-05-20T17:14:44Z</time>
      </trkpt>
      <trkpt lat="47.5161" lon="1.33699">
        <ele>97</ele>
        <time>2026-05-20T17:15:18Z</time>
      </trkpt>
      <trkpt lat="47.51621" lon="1.33551">
        <ele>96</ele>
        <time>2026-05-20T17:15:41Z</time>
      </trkpt>
      <trkpt lat="47.51643" lon="1.33416">
        <ele>95</ele>
        <time>2026-05-20T17:16:03Z</time>
      </trkpt>
      <trkpt lat="47.5179" lon="1.33394">
        <ele>97</ele>
        <time>2026-05-20T17:16:38Z</time>
      </trkpt>
      <trkpt lat="47.51801" lon="1.33378">
        <ele>85.5</ele>
      </trkpt>
      <trkpt lat="47.51785" lon="1.33352">
        <ele>85.3</ele>
      </trkpt>
      <trkpt lat="47.51764" lon="1.33312">
        <ele>97</ele>
        <time>2026-05-20T17:16:52Z</time>
      </trkpt>
      <trkpt lat="47.51895" lon="1.33254">
        <ele>88</ele>
        <time>2026-05-20T17:17:24Z</time>
      </trkpt>
      <trkpt lat="47.51958" lon="1.33199">
        <ele>88</ele>
        <time>2026-05-20T17:17:40Z</time>
      </trkpt>
      <trkpt lat="47.5212" lon="1.33031">
        <ele>98</ele>
        <time>2026-05-20T17:18:27Z</time>
      </trkpt>
      <trkpt lat="47.52217" lon="1.32924">
        <ele>102</ele>
        <time>2026-05-20T17:18:55Z</time>
      </trkpt>
      <trkpt lat="47.52264" lon="1.32879">
        <ele>102</ele>
        <time>2026-05-20T17:19:08Z</time>
      </trkpt>
      <trkpt lat="47.52302" lon="1.3283">
        <ele>104</ele>
        <time>2026-05-20T17:19:20Z</time>
      </trkpt>
      <trkpt lat="47.52348" lon="1.32744">
        <ele>107</ele>
        <time>2026-05-20T17:19:37Z</time>
      </trkpt>
      <trkpt lat="47.52383" lon="1.32663">
        <ele>109</ele>
        <time>2026-05-20T17:19:52Z</time>
      </trkpt>
      <trkpt lat="47.52407" lon="1.32638">
        <ele>109</ele>
        <time>2026-05-20T17:19:59Z</time>
      </trkpt>
      <trkpt lat="47.52446" lon="1.32627">
        <ele>109</ele>
        <time>2026-05-20T17:20:09Z</time>
      </trkpt>
      <trkpt lat="47.52501" lon="1.32622">
        <ele>107</ele>
        <time>2026-05-20T17:20:21Z</time>
      </trkpt>
      <trkpt lat="47.5255" lon="1.32617">
        <ele>108</ele>
        <time>2026-05-20T17:20:33Z</time>
      </trkpt>
      <trkpt lat="47.52969" lon="1.32574">
        <ele>114</ele>
        <time>2026-05-20T17:22:11Z</time>
      </trkpt>
      <trkpt lat="47.53111" lon="1.32397">
        <ele>112</ele>
        <time>2026-05-20T17:22:54Z</time>
      </trkpt>
      <trkpt lat="47.53138" lon="1.32411">
        <ele>100</ele>
        <time>2026-05-20T17:23:07Z</time>
      </trkpt>
      <trkpt lat="47.53161" lon="1.32385">
        <ele>100</ele>
      </trkpt>
      <trkpt lat="47.53155" lon="1.323">
        <ele>100</ele>
      </trkpt>
      <trkpt lat="47.53142" lon="1.32235">
        <ele>100</ele>
      </trkpt>
      <trkpt lat="47.53175" lon="1.32216">
        <ele>100</ele>
        <time>2026-05-20T17:23:31Z</time>
      </trkpt>
      <trkpt lat="47.53202" lon="1.32203">
        <ele>99.7</ele>
        <time>2026-05-20T17:23:45Z</time>
      </trkpt>
      <trkpt lat="47.53239" lon="1.32221">
        <ele>98.4</ele>
      </trkpt>
      <trkpt lat="47.53275" lon="1.32185">
        <ele>98</ele>
      </trkpt>
      <trkpt lat="47.5327" lon="1.32148">
        <ele>97.5</ele>
      </trkpt>
      <trkpt lat="47.53284" lon="1.32108">
        <ele>97</ele>
      </trkpt>
      <trkpt lat="47.53244" lon="1.32067">
        <ele>97.6</ele>
      </trkpt>
      <trkpt lat="47.53371" lon="1.31928">
        <ele>102</ele>
        <time>2026-05-20T17:24:45Z</time>
      </trkpt>
      <trkpt lat="47.53452" lon="1.3184">
        <ele>94.7</ele>
        <time>2026-05-20T17:25:08Z</time>
      </trkpt>
      <trkpt lat="47.53502" lon="1.31798">
        <ele>100</ele>
        <time>2026-05-20T17:25:21Z</time>
      </trkpt>
      <trkpt lat="47.53604" lon="1.31685">
        <ele>98</ele>
        <time>2026-05-20T17:25:51Z</time>
      </trkpt>
      <trkpt lat="47.53661" lon="1.31687">
        <ele>99</ele>
        <time>2026-05-20T17:26:04Z</time>
      </trkpt>
      <trkpt lat="47.53669" lon="1.31747">
        <ele>101</ele>
        <time>2026-05-20T17:26:14Z</time>
      </trkpt>
      <trkpt lat="47.53683" lon="1.31948">
        <ele>102</ele>
        <time>2026-05-20T17:26:46Z</time>
      </trkpt>
      <trkpt lat="47.53777" lon="1.3193">
        <ele>101</ele>
        <time>2026-05-20T17:27:08Z</time>
      </trkpt>
      <trkpt lat="47.53834" lon="1.31912">
        <ele>102</ele>
        <time>2026-05-20T17:27:22Z</time>
      </trkpt>
      <trkpt lat="47.53881" lon="1.31911">
        <ele>101</ele>
        <time>2026-05-20T17:27:33Z</time>
      </trkpt>
      <trkpt lat="47.53914" lon="1.31901">
        <ele>101</ele>
        <time>2026-05-20T17:27:41Z</time>
      </trkpt>
      <trkpt lat="47.54122" lon="1.31851">
        <ele>100</ele>
        <time>2026-05-20T17:28:30Z</time>
      </trkpt>
      <trkpt lat="47.54394" lon="1.31794">
        <ele>95</ele>
        <time>2026-05-20T17:29:34Z</time>
      </trkpt>
      <trkpt lat="47.54456" lon="1.31787">
        <ele>96</ele>
        <time>2026-05-20T17:29:48Z</time>
      </trkpt>
      <trkpt lat="47.54429" lon="1.31731">
        <ele>81.8</ele>
      </trkpt>
      <trkpt lat="47.54384" lon="1.31679">
        <ele>80.6</ele>
      </trkpt>
      <trkpt lat="47.5439" lon="1.31639">
        <ele>83.4</ele>
      </trkpt>
      <trkpt lat="47.54392" lon="1.31602">
        <ele>86.8</ele>
      </trkpt>
      <trkpt lat="47.54391" lon="1.31579">
        <ele>88.8</ele>
      </trkpt>
      <trkpt lat="47.54417" lon="1.3156">
        <ele>94</ele>
      </trkpt>
      <trkpt lat="47.54394" lon="1.31532">
        <ele>92.2</ele>
      </trkpt>
      <trkpt lat="47.54378" lon="1.31482">
        <ele>93.6</ele>
      </trkpt>
      <trkpt lat="47.54364" lon="1.31455">
        <ele>94.2</ele>
      </trkpt>
      <trkpt lat="47.54355" lon="1.31406">
        <ele>93.2</ele>
      </trkpt>
      <trkpt lat="47.54358" lon="1.31384">
        <ele>91.4</ele>
      </trkpt>
      <trkpt lat="47.5438" lon="1.31363">
        <ele>83.8</ele>
      </trkpt>
      <trkpt lat="47.54374" lon="1.31327">
        <ele>77.5</ele>
      </trkpt>
      <trkpt lat="47.54385" lon="1.31295">
        <ele>70</ele>
      </trkpt>
      <trkpt lat="47.54495" lon="1.31431">
        <ele>69.5</ele>
      </trkpt>
      <trkpt lat="47.54514" lon="1.31454">
        <ele>69.8</ele>
      </trkpt>
      <trkpt lat="47.54647" lon="1.31614">
        <ele>69.1</ele>
      </trkpt>
      <trkpt lat="47.54659" lon="1.31696">
        <ele>78.8</ele>
      </trkpt>
      <trkpt lat="47.54603" lon="1.31785">
        <ele>94.6</ele>
        <time>2026-05-20T17:30:03Z</time>
      </trkpt>
      <trkpt lat="47.54576" lon="1.31802">
        <ele>92.9</ele>
        <time>2026-05-20T17:30:14Z</time>
      </trkpt>
      <trkpt lat="47.54593" lon="1.31819">
        <ele>105</ele>
        <time>2026-05-20T17:30:26Z</time>
      </trkpt>
      <trkpt lat="47.54672" lon="1.31821">
        <ele>105</ele>
        <time>2026-05-20T17:30:44Z</time>
      </trkpt>
      <trkpt lat="47.54724" lon="1.31896">
        <ele>106</ele>
        <time>2026-05-20T17:31:01Z</time>
      </trkpt>
      <trkpt lat="47.54754" lon="1.31955">
        <ele>109</ele>
        <time>2026-05-20T17:31:13Z</time>
      </trkpt>
      <trkpt lat="47.54788" lon="1.32002">
        <ele>110</ele>
        <time>2026-05-20T17:31:24Z</time>
      </trkpt>
      <trkpt lat="47.54812" lon="1.32043">
        <ele>111</ele>
        <time>2026-05-20T17:31:32Z</time>
      </trkpt>
      <trkpt lat="47.54824" lon="1.32093">
        <ele>114</ele>
        <time>2026-05-20T17:31:41Z</time>
      </trkpt>
      <trkpt lat="47.54856" lon="1.32173">
        <ele>114</ele>
        <time>2026-05-20T17:31:55Z</time>
      </trkpt>
      <trkpt lat="47.54876" lon="1.32219">
        <ele>115</ele>
        <time>2026-05-20T17:32:04Z</time>
      </trkpt>
      <trkpt lat="47.54893" lon="1.32256">
        <ele>116</ele>
        <time>2026-05-20T17:32:11Z</time>
      </trkpt>
      <trkpt lat="47.5491" lon="1.32302">
        <ele>118</ele>
        <time>2026-05-20T17:32:19Z</time>
      </trkpt>
      <trkpt lat="47.54941" lon="1.32347">
        <ele>117</ele>
        <time>2026-05-20T17:32:29Z</time>
      </trkpt>
      <trkpt lat="47.54962" lon="1.32371">
        <ele>116</ele>
        <time>2026-05-20T17:32:35Z</time>
      </trkpt>
      <trkpt lat="47.54977" lon="1.32424">
        <ele>115</ele>
        <time>2026-05-20T17:32:45Z</time>
      </trkpt>
      <trkpt lat="47.54987" lon="1.32479">
        <ele>115</ele>
        <time>2026-05-20T17:32:53Z</time>
      </trkpt>
      <trkpt lat="47.55014" lon="1.32498">
        <ele>115</ele>
        <time>2026-05-20T17:33:00Z</time>
      </trkpt>
      <trkpt lat="47.55027" lon="1.32499">
        <ele>115</ele>
        <time>2026-05-20T17:33:04Z</time>
      </trkpt>
      <trkpt lat="47.55036" lon="1.32484">
        <ele>115</ele>
        <time>2026-05-20T17:33:07Z</time>
      </trkpt>
      <trkpt lat="47.55028" lon="1.32419">
        <ele>100</ele>
        <time>2026-05-20T17:33:18Z</time>
      </trkpt>
      <trkpt lat="47.55042" lon="1.32374">
        <ele>100.2</ele>
      </trkpt>
      <trkpt lat="47.55053" lon="1.32334">
        <ele>109</ele>
        <time>2026-05-20T17:33:31Z</time>
      </trkpt>
      <trkpt lat="47.55068" lon="1.32346">
        <ele>109</ele>
        <time>2026-05-20T17:33:35Z</time>
      </trkpt>
      <trkpt lat="47.55077" lon="1.32376">
        <ele>110</ele>
        <time>2026-05-20T17:33:40Z</time>
      </trkpt>
      <trkpt lat="47.55104" lon="1.32403">
        <ele>109</ele>
        <time>2026-05-20T17:33:47Z</time>
      </trkpt>
      <trkpt lat="47.55124" lon="1.32443">
        <ele>110</ele>
        <time>2026-05-20T17:33:55Z</time>
      </trkpt>
      <trkpt lat="47.5517" lon="1.3251">
        <ele>113</ele>
        <time>2026-05-20T17:34:10Z</time>
      </trkpt>
      <trkpt lat="47.55194" lon="1.32522">
        <ele>109</ele>
        <time>2026-05-20T17:34:16Z</time>
      </trkpt>
      <trkpt lat="47.552" lon="1.3253">
        <ele>108</ele>
        <time>2026-05-20T17:34:18Z</time>
      </trkpt>
      <trkpt lat="47.55208" lon="1.3255">
        <ele>109</ele>
        <time>2026-05-20T17:34:22Z</time>
      </trkpt>
      <trkpt lat="47.55208" lon="1.32565">
        <ele>110</ele>
        <time>2026-05-20T17:34:24Z</time>
      </trkpt>
      <trkpt lat="47.55214" lon="1.32576">
        <ele>111</ele>
        <time>2026-05-20T17:34:26Z</time>
      </trkpt>
      <trkpt lat="47.55225" lon="1.32584">
        <ele>110</ele>
        <time>2026-05-20T17:34:29Z</time>
      </trkpt>
      <trkpt lat="47.55236" lon="1.32615">
        <ele>111</ele>
        <time>2026-05-20T17:34:35Z</time>
      </trkpt>
      <trkpt lat="47.55259" lon="1.32655">
        <ele>111</ele>
        <time>2026-05-20T17:34:43Z</time>
      </trkpt>
      <trkpt lat="47.55273" lon="1.32684">
        <ele>111</ele>
        <time>2026-05-20T17:34:49Z</time>
      </trkpt>
      <trkpt lat="47.55283" lon="1.32692">
        <ele>111</ele>
        <time>2026-05-20T17:34:51Z</time>
      </trkpt>
      <trkpt lat="47.55272" lon="1.32725">
        <ele>114</ele>
        <time>2026-05-20T17:34:57Z</time>
      </trkpt>
      <trkpt lat="47.55263" lon="1.32738">
        <ele>116</ele>
        <time>2026-05-20T17:35:00Z</time>
      </trkpt>
      <trkpt lat="47.55229" lon="1.32702">
        <ele>115</ele>
        <time>2026-05-20T17:35:10Z</time>
      </trkpt>
      <trkpt lat="47.55212" lon="1.32681">
        <ele>115</ele>
        <time>2026-05-20T17:35:15Z</time>
      </trkpt>
      <trkpt lat="47.55194" lon="1.32666">
        <ele>115</ele>
        <time>2026-05-20T17:35:20Z</time>
      </trkpt>
      <trkpt lat="47.5509" lon="1.32677">
        <ele>113</ele>
        <time>2026-05-20T17:35:44Z</time>
      </trkpt>
      <trkpt lat="47.54952" lon="1.32698">
        <ele>112</ele>
        <time>2026-05-20T17:36:17Z</time>
      </trkpt>
      <trkpt lat="47.54756" lon="1.32733">
        <ele>113</ele>
        <time>2026-05-20T17:37:03Z</time>
      </trkpt>
      <trkpt lat="47.54652" lon="1.32754">
        <ele>109</ele>
        <time>2026-05-20T17:37:27Z</time>
      </trkpt>
      <trkpt lat="47.54605" lon="1.32759">
        <ele>107</ele>
        <time>2026-05-20T17:37:38Z</time>
      </trkpt>
      <trkpt lat="47.54542" lon="1.32776">
        <ele>102</ele>
        <time>2026-05-20T17:37:53Z</time>
      </trkpt>
      <trkpt lat="47.54519" lon="1.3247">
        <ele>107</ele>
        <time>2026-05-20T17:38:42Z</time>
      </trkpt>
      <trkpt lat="47.54516" lon="1.3247">
        <ele>106</ele>
        <time>2026-05-20T17:38:42Z</time>
      </trkpt>
      <trkpt lat="47.54448" lon="1.32493">
        <ele>101</ele>
        <time>2026-05-20T17:38:59Z</time>
      </trkpt>
      <trkpt lat="47.5441" lon="1.32491">
        <ele>98</ele>
        <time>2026-05-20T17:39:08Z</time>
      </trkpt>
      <trkpt lat="47.54314" lon="1.32497">
        <ele>94</ele>
        <time>2026-05-20T17:39:30Z</time>
      </trkpt>
      <trkpt lat="47.54207" lon="1.32515">
        <ele>98</ele>
        <time>2026-05-20T17:39:55Z</time>
      </trkpt>
      <trkpt lat="47.53973" lon="1.32548">
        <ele>99</ele>
        <time>2026-05-20T17:40:50Z</time>
      </trkpt>
      <trkpt lat="47.5369" lon="1.32594">
        <ele>105</ele>
        <time>2026-05-20T17:41:57Z</time>
      </trkpt>
      <trkpt lat="47.5331" lon="1.32646">
        <ele>114</ele>
        <time>2026-05-20T17:43:26Z</time>
      </trkpt>
      <trkpt lat="47.5334" lon="1.32684">
        <ele>113</ele>
        <time>2026-05-20T17:43:35Z</time>
      </trkpt>
      <trkpt lat="47.53508" lon="1.32909">
        <ele>109</ele>
        <time>2026-05-20T17:44:28Z</time>
      </trkpt>
      <trkpt lat="47.53587" lon="1.33019">
        <ele>110</ele>
        <time>2026-05-20T17:44:53Z</time>
      </trkpt>
      <trkpt lat="47.53897" lon="1.33431">
        <ele>115</ele>
        <time>2026-05-20T17:46:30Z</time>
      </trkpt>
      <trkpt lat="47.54176" lon="1.33796">
        <ele>98.7</ele>
        <time>2026-05-20T17:47:39Z</time>
      </trkpt>
      <trkpt lat="47.54177" lon="1.3375">
        <ele>98.6</ele>
      </trkpt>
      <trkpt lat="47.54162" lon="1.33687">
        <ele>99</ele>
      </trkpt>
      <trkpt lat="47.54135" lon="1.33388">
        <ele>97</ele>
      </trkpt>
      <trkpt lat="47.54584" lon="1.33296">
        <ele>100</ele>
        <time>2026-05-20T17:49:10Z</time>
      </trkpt>
      <trkpt lat="47.5465" lon="1.34168">
        <ele>102.4</ele>
        <time>2026-05-20T17:49:55Z</time>
      </trkpt>
      <trkpt lat="47.54669" lon="1.3446">
        <ele>109</ele>
        <time>2026-05-20T17:50:33Z</time>
      </trkpt>
      <trkpt lat="47.54667" lon="1.34462">
        <ele>109</ele>
        <time>2026-05-20T17:50:33Z</time>
      </trkpt>
      <trkpt lat="47.54665" lon="1.34472">
        <ele>109</ele>
        <time>2026-05-20T17:50:35Z</time>
      </trkpt>
      <trkpt lat="47.54667" lon="1.34478">
        <ele>109</ele>
        <time>2026-05-20T17:50:36Z</time>
      </trkpt>
      <trkpt lat="47.54674" lon="1.34482">
        <ele>110</ele>
        <time>2026-05-20T17:50:38Z</time>
      </trkpt>
      <trkpt lat="47.54685" lon="1.34645">
        <ele>114</ele>
        <time>2026-05-20T17:51:04Z</time>
      </trkpt>
      <trkpt lat="47.54764" lon="1.3569">
        <ele>114</ele>
        <time>2026-05-20T17:53:49Z</time>
      </trkpt>
      <trkpt lat="47.54767" lon="1.3569">
        <ele>114</ele>
        <time>2026-05-20T17:53:50Z</time>
      </trkpt>
      <trkpt lat="47.54796" lon="1.36121">
        <ele>98</ele>
        <time>2026-05-20T17:55:11Z</time>
      </trkpt>
      <trkpt lat="47.54882" lon="1.36107">
        <ele>99</ele>
      </trkpt>
      <trkpt lat="47.54967" lon="1.36086">
        <ele>99.8</ele>
      </trkpt>
      <trkpt lat="47.55136" lon="1.36088">
        <ele>101</ele>
        <time>2026-05-20T17:56:21Z</time>
      </trkpt>
      <trkpt lat="47.55335" lon="1.3609">
        <ele>101</ele>
      </trkpt>
      <trkpt lat="47.55338" lon="1.36199">
        <ele>116</ele>
        <time>2026-05-20T17:57:16Z</time>
      </trkpt>
      <trkpt lat="47.5536" lon="1.36409">
        <ele>113</ele>
        <time>2026-05-20T17:57:49Z</time>
      </trkpt>
      <trkpt lat="47.55548" lon="1.36406">
        <ele>116</ele>
        <time>2026-05-20T17:58:33Z</time>
      </trkpt>
      <trkpt lat="47.55706" lon="1.36408">
        <ele>113</ele>
        <time>2026-05-20T17:59:10Z</time>
      </trkpt>
      <trkpt lat="47.55718" lon="1.36397">
        <ele>112</ele>
        <time>2026-05-20T17:59:13Z</time>
      </trkpt>
      <trkpt lat="47.55724" lon="1.36353">
        <ele>111</ele>
        <time>2026-05-20T17:59:20Z</time>
      </trkpt>
      <trkpt lat="47.5574" lon="1.36316">
        <ele>109</ele>
        <time>2026-05-20T17:59:27Z</time>
      </trkpt>
      <trkpt lat="47.55754" lon="1.36294">
        <ele>108</ele>
        <time>2026-05-20T17:59:32Z</time>
      </trkpt>
      <trkpt lat="47.55779" lon="1.36272">
        <ele>105</ele>
        <time>2026-05-20T17:59:39Z</time>
      </trkpt>
      <trkpt lat="47.55785" lon="1.3624">
        <ele>105</ele>
        <time>2026-05-20T17:59:44Z</time>
      </trkpt>
      <trkpt lat="47.55791" lon="1.3618">
        <ele>105</ele>
        <time>2026-05-20T17:59:54Z</time>
      </trkpt>
      <trkpt lat="47.55834" lon="1.35972">
        <ele>105</ele>
        <time>2026-05-20T18:00:28Z</time>
      </trkpt>
      <trkpt lat="47.55842" lon="1.35944">
        <ele>106</ele>
        <time>2026-05-20T18:00:33Z</time>
      </trkpt>
      <trkpt lat="47.5588" lon="1.3588">
        <ele>106</ele>
        <time>2026-05-20T18:00:46Z</time>
      </trkpt>
      <trkpt lat="47.55913" lon="1.35832">
        <ele>105</ele>
        <time>2026-05-20T18:00:57Z</time>
      </trkpt>
      <trkpt lat="47.56055" lon="1.35659">
        <ele>103</ele>
        <time>2026-05-20T18:01:40Z</time>
      </trkpt>
      <trkpt lat="47.56034" lon="1.3565">
        <ele>105</ele>
        <time>2026-05-20T18:01:45Z</time>
      </trkpt>
      <trkpt lat="47.55967" lon="1.35695">
        <ele>109</ele>
        <time>2026-05-20T18:02:02Z</time>
      </trkpt>
      <trkpt lat="47.55875" lon="1.35718">
        <ele>112</ele>
        <time>2026-05-20T18:02:24Z</time>
      </trkpt>
      <trkpt lat="47.55725" lon="1.35736">
        <ele>118</ele>
        <time>2026-05-20T18:02:59Z</time>
      </trkpt>
      <trkpt lat="47.55506" lon="1.35788">
        <ele>117</ele>
        <time>2026-05-20T18:03:51Z</time>
      </trkpt>
      <trkpt lat="47.55317" lon="1.35802">
        <ele>116</ele>
        <time>2026-05-20T18:04:35Z</time>
      </trkpt>
      <trkpt lat="47.55287" lon="1.35452">
        <ele>112</ele>
        <time>2026-05-20T18:05:31Z</time>
      </trkpt>
      <trkpt lat="47.55277" lon="1.35362">
        <ele>108</ele>
        <time>2026-05-20T18:05:45Z</time>
      </trkpt>
      <trkpt lat="47.55246" lon="1.34923">
        <ele>107</ele>
        <time>2026-05-20T18:06:55Z</time>
      </trkpt>
      <trkpt lat="47.55238" lon="1.34832">
        <ele>107</ele>
        <time>2026-05-20T18:07:09Z</time>
      </trkpt>
      <trkpt lat="47.55237" lon="1.34791">
        <ele>107</ele>
        <time>2026-05-20T18:07:16Z</time>
      </trkpt>
      <trkpt lat="47.55287" lon="1.34819">
        <ele>107</ele>
        <time>2026-05-20T18:07:28Z</time>
      </trkpt>
      <trkpt lat="47.55403" lon="1.34889">
        <ele>108</ele>
        <time>2026-05-20T18:07:57Z</time>
      </trkpt>
      <trkpt lat="47.55399" lon="1.34809">
        <ele>113</ele>
        <time>2026-05-20T18:08:10Z</time>
      </trkpt>
      <trkpt lat="47.55383" lon="1.34667">
        <ele>114</ele>
        <time>2026-05-20T18:08:33Z</time>
      </trkpt>
      <trkpt lat="47.55351" lon="1.34353">
        <ele>118</ele>
        <time>2026-05-20T18:09:23Z</time>
      </trkpt>
      <trkpt lat="47.55424" lon="1.34342">
        <ele>121</ele>
        <time>2026-05-20T18:09:40Z</time>
      </trkpt>
      <trkpt lat="47.55397" lon="1.34009">
        <ele>124</ele>
        <time>2026-05-20T18:10:33Z</time>
      </trkpt>
      <trkpt lat="47.55353" lon="1.33532">
        <ele>118</ele>
        <time>2026-05-20T18:11:49Z</time>
      </trkpt>
      <trkpt lat="47.55326" lon="1.33183">
        <ele>117</ele>
        <time>2026-05-20T18:12:44Z</time>
      </trkpt>
      <trkpt lat="47.55304" lon="1.3295">
        <ele>119</ele>
        <time>2026-05-20T18:13:21Z</time>
      </trkpt>
      <trkpt lat="47.55294" lon="1.32791">
        <ele>116</ele>
        <time>2026-05-20T18:13:46Z</time>
      </trkpt>
      <trkpt lat="47.5532" lon="1.32827">
        <ele>118</ele>
        <time>2026-05-20T18:13:54Z</time>
      </trkpt>
      <trkpt lat="47.55411" lon="1.32931">
        <ele>117</ele>
        <time>2026-05-20T18:14:21Z</time>
      </trkpt>
      <trkpt lat="47.55441" lon="1.32962">
        <ele>115</ele>
        <time>2026-05-20T18:14:30Z</time>
      </trkpt>
      <trkpt lat="47.55497" lon="1.33042">
        <ele>116</ele>
        <time>2026-05-20T18:14:48Z</time>
      </trkpt>
      <trkpt lat="47.55514" lon="1.33071">
        <ele>114</ele>
        <time>2026-05-20T18:14:54Z</time>
      </trkpt>
      <trkpt lat="47.55557" lon="1.33163">
        <ele>113</ele>
        <time>2026-05-20T18:15:12Z</time>
      </trkpt>
      <trkpt lat="47.55573" lon="1.332">
        <ele>114</ele>
        <time>2026-05-20T18:15:19Z</time>
      </trkpt>
      <trkpt lat="47.55573" lon="1.33212">
        <ele>114</ele>
        <time>2026-05-20T18:15:21Z</time>
      </trkpt>
      <trkpt lat="47.55573" lon="1.332">
        <ele>114</ele>
        <time>2026-05-20T18:15:22Z</time>
      </trkpt>
      <trkpt lat="47.55599" lon="1.3327">
        <ele>115</ele>
        <time>2026-05-20T18:15:35Z</time>
      </trkpt>
      <trkpt lat="47.55617" lon="1.33305">
        <ele>115</ele>
        <time>2026-05-20T18:15:42Z</time>
      </trkpt>
      <trkpt lat="47.55635" lon="1.33331">
        <ele>117</ele>
        <time>2026-05-20T18:15:48Z</time>
      </trkpt>
      <trkpt lat="47.55677" lon="1.33425">
        <ele>119</ele>
        <time>2026-05-20T18:16:06Z</time>
      </trkpt>
      <trkpt lat="47.55683" lon="1.33447">
        <ele>120</ele>
        <time>2026-05-20T18:16:09Z</time>
      </trkpt>
      <trkpt lat="47.55713" lon="1.33439">
        <ele>117</ele>
        <time>2026-05-20T18:16:16Z</time>
      </trkpt>
      <trkpt lat="47.55733" lon="1.33454">
        <ele>117</ele>
        <time>2026-05-20T18:16:22Z</time>
      </trkpt>
      <trkpt lat="47.55743" lon="1.33452">
        <ele>116</ele>
        <time>2026-05-20T18:16:24Z</time>
      </trkpt>
      <trkpt lat="47.55763" lon="1.3346">
        <ele>112</ele>
        <time>2026-05-20T18:16:29Z</time>
      </trkpt>
      <trkpt lat="47.55767" lon="1.33473">
        <ele>113</ele>
        <time>2026-05-20T18:16:31Z</time>
      </trkpt>
      <trkpt lat="47.55767" lon="1.33486">
        <ele>114</ele>
        <time>2026-05-20T18:16:33Z</time>
      </trkpt>
      <trkpt lat="47.55773" lon="1.33505">
        <ele>114</ele>
        <time>2026-05-20T18:16:36Z</time>
      </trkpt>
      <trkpt lat="47.55788" lon="1.33533">
        <ele>113</ele>
        <time>2026-05-20T18:16:42Z</time>
      </trkpt>
      <trkpt lat="47.55805" lon="1.33572">
        <ele>114</ele>
        <time>2026-05-20T18:16:49Z</time>
      </trkpt>
      <trkpt lat="47.55816" lon="1.33587">
        <ele>115</ele>
        <time>2026-05-20T18:16:53Z</time>
      </trkpt>
      <trkpt lat="47.55827" lon="1.33613">
        <ele>115</ele>
        <time>2026-05-20T18:16:58Z</time>
      </trkpt>
      <trkpt lat="47.55866" lon="1.33679">
        <ele>114</ele>
        <time>2026-05-20T18:17:12Z</time>
      </trkpt>
      <trkpt lat="47.55868" lon="1.33694">
        <ele>115</ele>
        <time>2026-05-20T18:17:14Z</time>
      </trkpt>
      <trkpt lat="47.55878" lon="1.33711">
        <ele>116</ele>
        <time>2026-05-20T18:17:18Z</time>
      </trkpt>
      <trkpt lat="47.55887" lon="1.33737">
        <ele>117</ele>
        <time>2026-05-20T18:17:22Z</time>
      </trkpt>
      <trkpt lat="47.55898" lon="1.33752">
        <ele>118</ele>
        <time>2026-05-20T18:17:26Z</time>
      </trkpt>
      <trkpt lat="47.55934" lon="1.3378">
        <ele>116</ele>
        <time>2026-05-20T18:17:35Z</time>
      </trkpt>
      <trkpt lat="47.55986" lon="1.3384">
        <ele>117</ele>
        <time>2026-05-20T18:17:51Z</time>
      </trkpt>
      <trkpt lat="47.56035" lon="1.33913">
        <ele>114</ele>
        <time>2026-05-20T18:18:07Z</time>
      </trkpt>
      <trkpt lat="47.56076" lon="1.33956">
        <ele>112</ele>
        <time>2026-05-20T18:18:18Z</time>
      </trkpt>
      <trkpt lat="47.56111" lon="1.33996">
        <ele>110</ele>
        <time>2026-05-20T18:18:29Z</time>
      </trkpt>
      <trkpt lat="47.56117" lon="1.34025">
        <ele>111</ele>
        <time>2026-05-20T18:18:34Z</time>
      </trkpt>
      <trkpt lat="47.56151" lon="1.34102">
        <ele>111</ele>
        <time>2026-05-20T18:18:48Z</time>
      </trkpt>
      <trkpt lat="47.56178" lon="1.34133">
        <ele>110</ele>
        <time>2026-05-20T18:18:56Z</time>
      </trkpt>
      <trkpt lat="47.56187" lon="1.34165">
        <ele>111</ele>
        <time>2026-05-20T18:19:02Z</time>
      </trkpt>
      <trkpt lat="47.56195" lon="1.34206">
        <ele>113</ele>
        <time>2026-05-20T18:19:08Z</time>
      </trkpt>
      <trkpt lat="47.56194" lon="1.34254">
        <ele>117</ele>
        <time>2026-05-20T18:19:16Z</time>
      </trkpt>
      <trkpt lat="47.56228" lon="1.34278">
        <ele>115</ele>
        <time>2026-05-20T18:19:25Z</time>
      </trkpt>
      <trkpt lat="47.56399" lon="1.34586">
        <ele>116</ele>
        <time>2026-05-20T18:20:27Z</time>
      </trkpt>
      <trkpt lat="47.5642" lon="1.34621">
        <ele>114</ele>
        <time>2026-05-20T18:20:35Z</time>
      </trkpt>
      <trkpt lat="47.56431" lon="1.34635">
        <ele>112</ele>
        <time>2026-05-20T18:20:38Z</time>
      </trkpt>
      <trkpt lat="47.56442" lon="1.34669">
        <ele>112</ele>
        <time>2026-05-20T18:20:44Z</time>
      </trkpt>
      <trkpt lat="47.56448" lon="1.34676">
        <ele>111</ele>
        <time>2026-05-20T18:20:46Z</time>
      </trkpt>
      <trkpt lat="47.56455" lon="1.34674">
        <ele>110</ele>
        <time>2026-05-20T18:20:48Z</time>
      </trkpt>
      <trkpt lat="47.5647" lon="1.34675">
        <ele>107</ele>
        <time>2026-05-20T18:20:51Z</time>
      </trkpt>
      <trkpt lat="47.56493" lon="1.34664">
        <ele>103</ele>
        <time>2026-05-20T18:20:57Z</time>
      </trkpt>
      <trkpt lat="47.56508" lon="1.34667">
        <ele>100</ele>
        <time>2026-05-20T18:21:00Z</time>
      </trkpt>
      <trkpt lat="47.5653" lon="1.34684">
        <ele>94</ele>
        <time>2026-05-20T18:21:06Z</time>
      </trkpt>
      <trkpt lat="47.56548" lon="1.34704">
        <ele>90</ele>
        <time>2026-05-20T18:21:11Z</time>
      </trkpt>
      <trkpt lat="47.56577" lon="1.34728">
        <ele>86</ele>
        <time>2026-05-20T18:21:19Z</time>
      </trkpt>
      <trkpt lat="47.56567" lon="1.34733">
        <ele>88</ele>
        <time>2026-05-20T18:21:22Z</time>
      </trkpt>
      <trkpt lat="47.56537" lon="1.34719">
        <ele>94</ele>
        <time>2026-05-20T18:21:29Z</time>
      </trkpt>
      <trkpt lat="47.5651" lon="1.3471">
        <ele>100</ele>
        <time>2026-05-20T18:21:35Z</time>
      </trkpt>
      <trkpt lat="47.565" lon="1.34703">
        <ele>102</ele>
        <time>2026-05-20T18:21:38Z</time>
      </trkpt>
      <trkpt lat="47.56498" lon="1.34691">
        <ele>102</ele>
        <time>2026-05-20T18:21:40Z</time>
      </trkpt>
      <trkpt lat="47.56484" lon="1.34689">
        <ele>105</ele>
        <time>2026-05-20T18:21:43Z</time>
      </trkpt>
      <trkpt lat="47.56474" lon="1.34694">
        <ele>106</ele>
        <time>2026-05-20T18:21:46Z</time>
      </trkpt>
      <trkpt lat="47.56477" lon="1.34713">
        <ele>106</ele>
        <time>2026-05-20T18:21:49Z</time>
      </trkpt>
      <trkpt lat="47.56472" lon="1.34714">
        <ele>107</ele>
        <time>2026-05-20T18:21:50Z</time>
      </trkpt>
      <trkpt lat="47.56459" lon="1.34699">
        <ele>109</ele>
        <time>2026-05-20T18:21:54Z</time>
      </trkpt>
      <trkpt lat="47.56472" lon="1.34747">
        <ele>107</ele>
        <time>2026-05-20T18:22:02Z</time>
      </trkpt>
      <trkpt lat="47.56427" lon="1.34741">
        <ele>115</ele>
        <time>2026-05-20T18:22:12Z</time>
      </trkpt>
      <trkpt lat="47.56411" lon="1.34783">
        <ele>114</ele>
        <time>2026-05-20T18:22:20Z</time>
      </trkpt>
      <trkpt lat="47.56373" lon="1.34817">
        <ele>112</ele>
        <time>2026-05-20T18:22:30Z</time>
      </trkpt>
      <trkpt lat="47.56315" lon="1.34874">
        <ele>109</ele>
        <time>2026-05-20T18:22:47Z</time>
      </trkpt>
      <trkpt lat="47.56303" lon="1.34956">
        <ele>105</ele>
        <time>2026-05-20T18:23:00Z</time>
      </trkpt>
      <trkpt lat="47.56355" lon="1.34984">
        <ele>102</ele>
        <time>2026-05-20T18:23:13Z</time>
      </trkpt>
      <trkpt lat="47.56447" lon="1.34996">
        <ele>100</ele>
        <time>2026-05-20T18:23:34Z</time>
      </trkpt>
      <trkpt lat="47.56513" lon="1.35001">
        <ele>97</ele>
        <time>2026-05-20T18:23:50Z</time>
      </trkpt>
      <trkpt lat="47.5653" lon="1.35004">
        <ele>97</ele>
        <time>2026-05-20T18:23:54Z</time>
      </trkpt>
      <trkpt lat="47.5658" lon="1.35006">
        <ele>96</ele>
        <time>2026-05-20T18:24:06Z</time>
      </trkpt>
      <trkpt lat="47.56596" lon="1.35017">
        <ele>97</ele>
        <time>2026-05-20T18:24:10Z</time>
      </trkpt>
      <trkpt lat="47.56597" lon="1.35027">
        <ele>97</ele>
        <time>2026-05-20T18:24:11Z</time>
      </trkpt>
      <trkpt lat="47.56609" lon="1.35031">
        <ele>97</ele>
        <time>2026-05-20T18:24:14Z</time>
      </trkpt>
      <trkpt lat="47.56615" lon="1.35031">
        <ele>97</ele>
        <time>2026-05-20T18:24:15Z</time>
      </trkpt>
      <trkpt lat="47.56615" lon="1.35036">
        <ele>97</ele>
        <time>2026-05-20T18:24:16Z</time>
      </trkpt>
      <trkpt lat="47.56638" lon="1.35035">
        <ele>97</ele>
        <time>2026-05-20T18:24:22Z</time>
      </trkpt>
      <trkpt lat="47.56645" lon="1.35036">
        <ele>97</ele>
        <time>2026-05-20T18:24:23Z</time>
      </trkpt>
      <trkpt lat="47.56656" lon="1.35041">
        <ele>97</ele>
        <time>2026-05-20T18:24:26Z</time>
      </trkpt>
      <trkpt lat="47.56663" lon="1.35048">
        <ele>98</ele>
        <time>2026-05-20T18:24:28Z</time>
      </trkpt>
      <trkpt lat="47.56663" lon="1.35064">
        <ele>98</ele>
        <time>2026-05-20T18:24:30Z</time>
      </trkpt>
      <trkpt lat="47.56673" lon="1.35056">
        <ele>98</ele>
        <time>2026-05-20T18:24:33Z</time>
      </trkpt>
      <trkpt lat="47.56678" lon="1.35057">
        <ele>98</ele>
        <time>2026-05-20T18:24:34Z</time>
      </trkpt>
      <trkpt lat="47.56712" lon="1.35093">
        <ele>99</ele>
        <time>2026-05-20T18:24:44Z</time>
      </trkpt>
      <trkpt lat="47.56841" lon="1.35268">
        <ele>98</ele>
        <time>2026-05-20T18:25:25Z</time>
      </trkpt>
      <trkpt lat="47.5687" lon="1.35314">
        <ele>97</ele>
        <time>2026-05-20T18:25:35Z</time>
      </trkpt>
      <trkpt lat="47.56897" lon="1.35349">
        <ele>96</ele>
        <time>2026-05-20T18:25:43Z</time>
      </trkpt>
      <trkpt lat="47.56912" lon="1.35373">
        <ele>96</ele>
        <time>2026-05-20T18:25:48Z</time>
      </trkpt>
      <trkpt lat="47.56923" lon="1.35385">
        <ele>95</ele>
        <time>2026-05-20T18:25:52Z</time>
      </trkpt>
      <trkpt lat="47.5699" lon="1.35428">
        <ele>90</ele>
        <time>2026-05-20T18:26:09Z</time>
      </trkpt>
      <trkpt lat="47.57003" lon="1.35439">
        <ele>89</ele>
        <time>2026-05-20T18:26:12Z</time>
      </trkpt>
      <trkpt lat="47.57014" lon="1.35456">
        <ele>88</ele>
        <time>2026-05-20T18:26:16Z</time>
      </trkpt>
      <trkpt lat="47.57026" lon="1.35482">
        <ele>87</ele>
        <time>2026-05-20T18:26:21Z</time>
      </trkpt>
      <trkpt lat="47.57031" lon="1.35496">
        <ele>87</ele>
        <time>2026-05-20T18:26:23Z</time>
      </trkpt>
      <trkpt lat="47.5703" lon="1.35516">
        <ele>88</ele>
        <time>2026-05-20T18:26:26Z</time>
      </trkpt>
      <trkpt lat="47.57038" lon="1.35575">
        <ele>90</ele>
        <time>2026-05-20T18:26:36Z</time>
      </trkpt>
      <trkpt lat="47.57053" lon="1.35609">
        <ele>90</ele>
        <time>2026-05-20T18:26:42Z</time>
      </trkpt>
      <trkpt lat="47.57071" lon="1.35695">
        <ele>93</ele>
        <time>2026-05-20T18:26:56Z</time>
      </trkpt>
      <trkpt lat="47.57086" lon="1.35725">
        <ele>93</ele>
        <time>2026-05-20T18:27:02Z</time>
      </trkpt>
      <trkpt lat="47.57086" lon="1.35739">
        <ele>93</ele>
        <time>2026-05-20T18:27:05Z</time>
      </trkpt>
      <trkpt lat="47.57083" lon="1.35751">
        <ele>94</ele>
        <time>2026-05-20T18:27:07Z</time>
      </trkpt>
      <trkpt lat="47.57069" lon="1.35775">
        <ele>94</ele>
        <time>2026-05-20T18:27:12Z</time>
      </trkpt>
      <trkpt lat="47.5705" lon="1.35797">
        <ele>94</ele>
        <time>2026-05-20T18:27:17Z</time>
      </trkpt>
      <trkpt lat="47.56959" lon="1.35873">
        <ele>95</ele>
        <time>2026-05-20T18:27:42Z</time>
      </trkpt>
      <trkpt lat="47.56955" lon="1.35879">
        <ele>95</ele>
        <time>2026-05-20T18:27:43Z</time>
      </trkpt>
      <trkpt lat="47.56955" lon="1.35891">
        <ele>95</ele>
        <time>2026-05-20T18:27:45Z</time>
      </trkpt>
      <trkpt lat="47.56989" lon="1.35994">
        <ele>95</ele>
        <time>2026-05-20T18:28:03Z</time>
      </trkpt>
      <trkpt lat="47.56991" lon="1.36007">
        <ele>95</ele>
        <time>2026-05-20T18:28:05Z</time>
      </trkpt>
      <trkpt lat="47.5699" lon="1.36013">
        <ele>95</ele>
        <time>2026-05-20T18:28:06Z</time>
      </trkpt>
      <trkpt lat="47.56985" lon="1.36022">
        <ele>94</ele>
        <time>2026-05-20T18:28:08Z</time>
      </trkpt>
      <trkpt lat="47.56951" lon="1.36075">
        <ele>94</ele>
        <time>2026-05-20T18:28:19Z</time>
      </trkpt>
      <trkpt lat="47.56936" lon="1.36093">
        <ele>94</ele>
        <time>2026-05-20T18:28:24Z</time>
      </trkpt>
      <trkpt lat="47.56988" lon="1.36108">
        <ele>92</ele>
        <time>2026-05-20T18:28:36Z</time>
      </trkpt>
      <trkpt lat="47.57014" lon="1.36276">
        <ele>90</ele>
        <time>2026-05-20T18:29:03Z</time>
      </trkpt>
      <trkpt lat="47.57044" lon="1.36286">
        <ele>89</ele>
        <time>2026-05-20T18:29:11Z</time>
      </trkpt>
      <trkpt lat="47.57091" lon="1.36295">
        <ele>87</ele>
        <time>2026-05-20T18:29:22Z</time>
      </trkpt>
      <trkpt lat="47.57095" lon="1.36299">
        <ele>87</ele>
        <time>2026-05-20T18:29:23Z</time>
      </trkpt>
      <trkpt lat="47.57106" lon="1.36342">
        <ele>88</ele>
        <time>2026-05-20T18:29:30Z</time>
      </trkpt>
      <trkpt lat="47.56964" lon="1.36348">
        <ele>91</ele>
        <time>2026-05-20T18:30:03Z</time>
      </trkpt>
      <trkpt lat="47.56902" lon="1.36346">
        <ele>92</ele>
        <time>2026-05-20T18:30:18Z</time>
      </trkpt>
      <trkpt lat="47.56885" lon="1.36351">
        <ele>92</ele>
        <time>2026-05-20T18:30:22Z</time>
      </trkpt>
      <trkpt lat="47.56899" lon="1.36366">
        <ele>92</ele>
        <time>2026-05-20T18:30:26Z</time>
      </trkpt>
      <trkpt lat="47.56938" lon="1.36418">
        <ele>91</ele>
        <time>2026-05-20T18:30:38Z</time>
      </trkpt>
      <trkpt lat="47.56945" lon="1.36424">
        <ele>91</ele>
        <time>2026-05-20T18:30:40Z</time>
      </trkpt>
      <trkpt lat="47.56953" lon="1.36426">
        <ele>91</ele>
        <time>2026-05-20T18:30:42Z</time>
      </trkpt>
      <trkpt lat="47.56978" lon="1.36424">
        <ele>91</ele>
        <time>2026-05-20T18:30:48Z</time>
      </trkpt>
      <trkpt lat="47.57011" lon="1.36425">
        <ele>91</ele>
        <time>2026-05-20T18:30:55Z</time>
      </trkpt>
      <trkpt lat="47.57029" lon="1.36429">
        <ele>91</ele>
        <time>2026-05-20T18:31:00Z</time>
      </trkpt>
      <trkpt lat="47.57043" lon="1.36436">
        <ele>91</ele>
        <time>2026-05-20T18:31:03Z</time>
      </trkpt>
      <trkpt lat="47.57045" lon="1.36441">
        <ele>91</ele>
        <time>2026-05-20T18:31:04Z</time>
      </trkpt>
      <trkpt lat="47.57045" lon="1.36456">
        <ele>91</ele>
        <time>2026-05-20T18:31:06Z</time>
      </trkpt>
      <trkpt lat="47.57057" lon="1.36472">
        <ele>91</ele>
        <time>2026-05-20T18:31:10Z</time>
      </trkpt>
      <trkpt lat="47.57066" lon="1.36491">
        <ele>92</ele>
        <time>2026-05-20T18:31:14Z</time>
      </trkpt>
      <trkpt lat="47.57072" lon="1.36496">
        <ele>92</ele>
        <time>2026-05-20T18:31:15Z</time>
      </trkpt>
      <trkpt lat="47.5708" lon="1.36515">
        <ele>92</ele>
        <time>2026-05-20T18:31:19Z</time>
      </trkpt>
      <trkpt lat="47.57081" lon="1.36526">
        <ele>92</ele>
        <time>2026-05-20T18:31:21Z</time>
      </trkpt>
      <trkpt lat="47.57075" lon="1.36542">
        <ele>92</ele>
        <time>2026-05-20T18:31:24Z</time>
      </trkpt>
      <trkpt lat="47.57078" lon="1.36549">
        <ele>92</ele>
        <time>2026-05-20T18:31:25Z</time>
      </trkpt>
      <trkpt lat="47.57079" lon="1.36565">
        <ele>92</ele>
        <time>2026-05-20T18:31:27Z</time>
      </trkpt>
      <trkpt lat="47.57082" lon="1.36568">
        <ele>92</ele>
        <time>2026-05-20T18:31:28Z</time>
      </trkpt>
      <trkpt lat="47.57093" lon="1.3656">
        <ele>92</ele>
        <time>2026-05-20T18:31:31Z</time>
      </trkpt>
      <trkpt lat="47.57112" lon="1.36552">
        <ele>93</ele>
        <time>2026-05-20T18:31:36Z</time>
      </trkpt>
      <trkpt lat="47.57124" lon="1.36543">
        <ele>93</ele>
        <time>2026-05-20T18:31:39Z</time>
      </trkpt>
      <trkpt lat="47.5712" lon="1.36516">
        <ele>93</ele>
        <time>2026-05-20T18:31:43Z</time>
      </trkpt>
      <trkpt lat="47.57118" lon="1.36466">
        <ele>91</ele>
        <time>2026-05-20T18:31:51Z</time>
      </trkpt>
      <trkpt lat="47.57119" lon="1.36462">
        <ele>91</ele>
        <time>2026-05-20T18:31:52Z</time>
      </trkpt>
      <trkpt lat="47.5713" lon="1.36465">
        <ele>92</ele>
        <time>2026-05-20T18:31:54Z</time>
      </trkpt>
      <trkpt lat="47.57148" lon="1.36474">
        <ele>92</ele>
        <time>2026-05-20T18:31:59Z</time>
      </trkpt>
      <trkpt lat="47.57161" lon="1.3645">
        <ele>92</ele>
        <time>2026-05-20T18:32:04Z</time>
      </trkpt>
      <trkpt lat="47.57199" lon="1.36399">
        <ele>92</ele>
        <time>2026-05-20T18:32:16Z</time>
      </trkpt>
      <trkpt lat="47.57194" lon="1.36365">
        <ele>90</ele>
        <time>2026-05-20T18:32:21Z</time>
      </trkpt>
      <trkpt lat="47.57224" lon="1.36343">
        <ele>89</ele>
        <time>2026-05-20T18:32:29Z</time>
      </trkpt>
      <trkpt lat="47.57239" lon="1.36338">
        <ele>88</ele>
        <time>2026-05-20T18:32:32Z</time>
      </trkpt>
      <trkpt lat="47.5725" lon="1.3634">
        <ele>89</ele>
        <time>2026-05-20T18:32:35Z</time>
      </trkpt>
      <trkpt lat="47.57256" lon="1.36338">
        <ele>88</ele>
        <time>2026-05-20T18:32:37Z</time>
      </trkpt>
      <trkpt lat="47.57289" lon="1.3634">
        <ele>86</ele>
        <time>2026-05-20T18:32:44Z</time>
      </trkpt>
      <trkpt lat="47.57293" lon="1.36344">
        <ele>86</ele>
        <time>2026-05-20T18:32:45Z</time>
      </trkpt>
      <trkpt lat="47.57297" lon="1.36365">
        <ele>88</ele>
        <time>2026-05-20T18:32:49Z</time>
      </trkpt>
      <trkpt lat="47.57292" lon="1.36367">
        <ele>89</ele>
        <time>2026-05-20T18:32:50Z</time>
      </trkpt>
      <trkpt lat="47.57277" lon="1.36364">
        <ele>89</ele>
        <time>2026-05-20T18:32:54Z</time>
      </trkpt>
      <trkpt lat="47.5727" lon="1.36367">
        <ele>90</ele>
        <time>2026-05-20T18:32:55Z</time>
      </trkpt>
      <trkpt lat="47.57265" lon="1.36374">
        <ele>91</ele>
        <time>2026-05-20T18:32:57Z</time>
      </trkpt>
      <trkpt lat="47.57258" lon="1.36376">
        <ele>91</ele>
        <time>2026-05-20T18:32:58Z</time>
      </trkpt>
      <trkpt lat="47.57251" lon="1.36386">
        <ele>92</ele>
        <time>2026-05-20T18:33:01Z</time>
      </trkpt>
      <trkpt lat="47.57236" lon="1.36401">
        <ele>93</ele>
        <time>2026-05-20T18:33:05Z</time>
      </trkpt>
      <trkpt lat="47.57226" lon="1.3643">
        <ele>94</ele>
        <time>2026-05-20T18:33:10Z</time>
      </trkpt>
      <trkpt lat="47.57229" lon="1.36441">
        <ele>95</ele>
        <time>2026-05-20T18:33:12Z</time>
      </trkpt>
      <trkpt lat="47.57235" lon="1.36451">
        <ele>95</ele>
        <time>2026-05-20T18:33:14Z</time>
      </trkpt>
      <trkpt lat="47.57236" lon="1.36493">
        <ele>96</ele>
        <time>2026-05-20T18:33:21Z</time>
      </trkpt>
      <trkpt lat="47.57241" lon="1.36505">
        <ele>96</ele>
        <time>2026-05-20T18:33:23Z</time>
      </trkpt>
      <trkpt lat="47.57245" lon="1.36522">
        <ele>96</ele>
        <time>2026-05-20T18:33:26Z</time>
      </trkpt>
      <trkpt lat="47.57253" lon="1.36529">
        <ele>96</ele>
        <time>2026-05-20T18:33:28Z</time>
      </trkpt>
      <trkpt lat="47.57256" lon="1.36536">
        <ele>96</ele>
        <time>2026-05-20T18:33:29Z</time>
      </trkpt>
      <trkpt lat="47.57254" lon="1.36561">
        <ele>95</ele>
        <time>2026-05-20T18:33:33Z</time>
      </trkpt>
      <trkpt lat="47.57256" lon="1.36573">
        <ele>95</ele>
        <time>2026-05-20T18:33:35Z</time>
      </trkpt>
      <trkpt lat="47.57261" lon="1.36586">
        <ele>94</ele>
        <time>2026-05-20T18:33:38Z</time>
      </trkpt>
      <trkpt lat="47.57281" lon="1.36618">
        <ele>93</ele>
        <time>2026-05-20T18:33:44Z</time>
      </trkpt>
      <trkpt lat="47.5729" lon="1.36629">
        <ele>92</ele>
        <time>2026-05-20T18:33:47Z</time>
      </trkpt>
      <trkpt lat="47.57304" lon="1.36619">
        <ele>92</ele>
        <time>2026-05-20T18:33:51Z</time>
      </trkpt>
      <trkpt lat="47.57383" lon="1.36571">
        <ele>86</ele>
        <time>2026-05-20T18:34:11Z</time>
      </trkpt>
      <trkpt lat="47.57504" lon="1.36488">
        <ele>77</ele>
        <time>2026-05-20T18:34:42Z</time>
      </trkpt>
      <trkpt lat="47.5753" lon="1.36465">
        <ele>75</ele>
        <time>2026-05-20T18:34:49Z</time>
      </trkpt>
      <trkpt lat="47.57605" lon="1.36385">
        <ele>73</ele>
        <time>2026-05-20T18:35:10Z</time>
      </trkpt>
      <trkpt lat="47.57615" lon="1.36377">
        <ele>73</ele>
        <time>2026-05-20T18:35:13Z</time>
      </trkpt>
      <trkpt lat="47.57621" lon="1.36381">
        <ele>72</ele>
        <time>2026-05-20T18:35:15Z</time>
      </trkpt>
      <trkpt lat="47.57627" lon="1.36388">
        <ele>72</ele>
        <time>2026-05-20T18:35:16Z</time>
      </trkpt>
      <trkpt lat="47.57663" lon="1.36453">
        <ele>71</ele>
        <time>2026-05-20T18:35:30Z</time>
      </trkpt>
      <trkpt lat="47.57697" lon="1.36521">
        <ele>70</ele>
        <time>2026-05-20T18:35:43Z</time>
      </trkpt>
      <trkpt lat="47.57707" lon="1.36535">
        <ele>70</ele>
        <time>2026-05-20T18:35:46Z</time>
      </trkpt>
      <trkpt lat="47.57795" lon="1.36443">
        <ele>69</ele>
        <time>2026-05-20T18:36:11Z</time>
      </trkpt>
      <trkpt lat="47.57855" lon="1.36389">
        <ele>70</ele>
        <time>2026-05-20T18:36:28Z</time>
      </trkpt>
      <trkpt lat="47.57823" lon="1.36647">
        <ele>72</ele>
        <time>2026-05-20T18:37:09Z</time>
      </trkpt>
      <trkpt lat="47.57829" lon="1.36655">
        <ele>73</ele>
        <time>2026-05-20T18:37:11Z</time>
      </trkpt>
      <trkpt lat="47.5787" lon="1.36675">
        <ele>72</ele>
        <time>2026-05-20T18:37:21Z</time>
      </trkpt>
      <trkpt lat="47.57904" lon="1.36685">
        <ele>72</ele>
        <time>2026-05-20T18:37:29Z</time>
      </trkpt>
      <trkpt lat="47.57947" lon="1.36681">
        <ele>71</ele>
        <time>2026-05-20T18:37:39Z</time>
      </trkpt>
      <trkpt lat="47.57947" lon="1.36685">
        <ele>71</ele>
        <time>2026-05-20T18:37:40Z</time>
      </trkpt>
      <trkpt lat="47.57945" lon="1.367">
        <ele>71</ele>
        <time>2026-05-20T18:37:42Z</time>
      </trkpt>
      <trkpt lat="47.57891" lon="1.36831">
        <ele>70</ele>
        <time>2026-05-20T18:38:06Z</time>
      </trkpt>
      <trkpt lat="47.57885" lon="1.36857">
        <ele>70</ele>
        <time>2026-05-20T18:38:11Z</time>
      </trkpt>
      <trkpt lat="47.57863" lon="1.369">
        <ele>71</ele>
        <time>2026-05-20T18:38:19Z</time>
      </trkpt>
      <trkpt lat="47.57863" lon="1.37005">
        <ele>71</ele>
        <time>2026-05-20T18:38:36Z</time>
      </trkpt>
      <trkpt lat="47.57859" lon="1.37007">
        <ele>71</ele>
        <time>2026-05-20T18:38:37Z</time>
      </trkpt>
      <trkpt lat="47.57842" lon="1.37044">
        <ele>71</ele>
        <time>2026-05-20T18:38:44Z</time>
      </trkpt>
      <trkpt lat="47.57874" lon="1.37175">
        <ele>71</ele>
        <time>2026-05-20T18:39:06Z</time>
      </trkpt>
      <trkpt lat="47.57887" lon="1.37248">
        <ele>72</ele>
        <time>2026-05-20T18:39:18Z</time>
      </trkpt>
      <trkpt lat="47.57901" lon="1.37417">
        <ele>72</ele>
        <time>2026-05-20T18:39:45Z</time>
      </trkpt>
      <trkpt lat="47.57901" lon="1.37461">
        <ele>72</ele>
        <time>2026-05-20T18:39:51Z</time>
      </trkpt>
      <trkpt lat="47.57896" lon="1.37507">
        <ele>72</ele>
        <time>2026-05-20T18:39:59Z</time>
      </trkpt>
      <trkpt lat="47.57878" lon="1.37614">
        <ele>72</ele>
        <time>2026-05-20T18:40:16Z</time>
      </trkpt>
      <trkpt lat="47.57863" lon="1.37678">
        <ele>73</ele>
        <time>2026-05-20T18:40:27Z</time>
      </trkpt>
      <trkpt lat="47.57838" lon="1.37758">
        <ele>74</ele>
        <time>2026-05-20T18:40:41Z</time>
      </trkpt>
      <trkpt lat="47.57817" lon="1.37847">
        <ele>75</ele>
        <time>2026-05-20T18:40:56Z</time>
      </trkpt>
      <trkpt lat="47.57811" lon="1.37921">
        <ele>74</ele>
        <time>2026-05-20T18:41:07Z</time>
      </trkpt>
      <trkpt lat="47.5781" lon="1.3796">
        <ele>75</ele>
        <time>2026-05-20T18:41:13Z</time>
      </trkpt>
      <trkpt lat="47.57835" lon="1.37961">
        <ele>74</ele>
        <time>2026-05-20T18:41:19Z</time>
      </trkpt>
      <trkpt lat="47.57844" lon="1.37959">
        <ele>74</ele>
        <time>2026-05-20T18:41:21Z</time>
      </trkpt>
      <trkpt lat="47.5786" lon="1.37959">
        <ele>74</ele>
        <time>2026-05-20T18:41:25Z</time>
      </trkpt>
      <trkpt lat="47.57876" lon="1.37961">
        <ele>74</ele>
        <time>2026-05-20T18:41:29Z</time>
      </trkpt>
      <trkpt lat="47.57891" lon="1.37958">
        <ele>73</ele>
        <time>2026-05-20T18:41:32Z</time>
      </trkpt>
      <trkpt lat="47.57898" lon="1.37942">
        <ele>68.6</ele>
        <time>2026-05-20T18:41:36Z</time>
      </trkpt>
      <trkpt lat="47.57929" lon="1.37918">
        <ele>69.8</ele>
      </trkpt>
      <trkpt lat="47.57992" lon="1.37936">
        <ele>77.9</ele>
      </trkpt>
      <trkpt lat="47.58002" lon="1.3794">
        <ele>79.5</ele>
      </trkpt>
      <trkpt lat="47.58005" lon="1.37957">
        <ele>79.9</ele>
      </trkpt>
      <trkpt lat="47.58039" lon="1.37953">
        <ele>82.3</ele>
      </trkpt>
      <trkpt lat="47.5804" lon="1.37994">
        <ele>81.6</ele>
        <time>2026-05-20T18:42:15Z</time>
      </trkpt>
      <trkpt lat="47.58082" lon="1.38001">
        <ele>81</ele>
        <time>2026-05-20T18:42:27Z</time>
      </trkpt>
      <trkpt lat="47.58131" lon="1.38">
        <ele>81</ele>
        <time>2026-05-20T18:42:38Z</time>
      </trkpt>
      <trkpt lat="47.58131" lon="1.38015">
        <ele>81</ele>
        <time>2026-05-20T18:42:40Z</time>
      </trkpt>
      <trkpt lat="47.58169" lon="1.38022">
        <ele>81</ele>
        <time>2026-05-20T18:42:49Z</time>
      </trkpt>
      <trkpt lat="47.58173" lon="1.3815">
        <ele>86</ele>
        <time>2026-05-20T18:43:10Z</time>
      </trkpt>
      <trkpt lat="47.58177" lon="1.3822">
        <ele>86</ele>
        <time>2026-05-20T18:43:21Z</time>
      </trkpt>
      <trkpt lat="47.58325" lon="1.38211">
        <ele>85</ele>
        <time>2026-05-20T18:43:55Z</time>
      </trkpt>
      <trkpt lat="47.58335" lon="1.3831">
        <ele>87</ele>
        <time>2026-05-20T18:44:11Z</time>
      </trkpt>
      <trkpt lat="47.58346" lon="1.38374">
        <ele>87</ele>
        <time>2026-05-20T18:44:21Z</time>
      </trkpt>
      <trkpt lat="47.58417" lon="1.38343">
        <ele>88</ele>
        <time>2026-05-20T18:44:39Z</time>
        <extensions>
          <visugpx:TrkExtension xmlns:visugpx="https://www.visugpx.com/editgpx/">
            <visugpx:node>1</visugpx:node>
            </visugpx:TrkExtension>
        </extensions>
      </trkpt>
    </trkseg>
  </trk>
</gpx>